Date	Time of Day	Time of Run (sec)	Data PointGroup	Data Point Number	N1 Frequency (Hz)	N1 Percent	N1 RPM (51,120)	N2 Frequency (Hz)	N2 Percent	N2 RPM (35,000)	Engine TOT (F)	Air Plenum Temperature (F)	Ambient Temperature (F)	Ambient Pressure (psia)	Ambient Relative Humidity	Compressor Bleed Temperature (F)	Compressor Bleed Pressure (psig)	Bleed Temperature (F)	Bleed Pressure (in H2O)	Bleed Pressure (psia)	Bleed DP Pressure (in H2O)	Bleed Air SV	Sample	Orifice Plate	Sonic Orifice Plate Dia.	Dyno RPM	Dyno Torque (lbf*ft)	Dyno HorsePower (Hp)	Compressor Bleed Pressure (psia)	Compressor Pressure Ratio	Compressor Bleed Temperature (C)	Comp Simple Isentropic Temp Expected (C)	Bleed Air Mass Flow (lbm/min)	Bleed Air Volumetric Flow (SCFM)	Bleed Air Volumetric Flow (LPM)
10/24/2014 2:56:45 PM	14:56:45	0	A	1	-1	0	0	0	0	0	80.76826	83.19214	82.25241	14.20725	51.88499	83.8532	-0.25	78.69694	-0.3649998	14.19392	4.999924E-02	0	1	1	0.15	-2	-0.2001953	7.623425E-05	13.95225	0.9820511	28.80734	26.91137	0.1826401	2.387831	67.61575
10/24/2014 2:56:55 PM	14:56:55	3	A	1	-1	0	0	0	0	0	80.59197	82.7955	82.25241	14.20725	51.88499	83.8532	-0.2550049	78.69694	-0.3500004	14.19446	5.500031E-02	0	1	1	0.15	-2	-0.2001953	7.623425E-05	13.95225	0.9820511	28.80734	26.69212	0.1898193	2.481692	70.27358
10/24/2014 2:57:13 PM	14:57:13	0	A	2	-1	0	0	0	0	0	80.68011	83.14807	82.27805	14.2065	51.935	83.89727	-0.2599945	78.6088	-0.3540001	14.1936	5.200005E-02	0	1	1	0.15	-2	-0.2001953	7.623425E-05	13.94651	0.9816989	28.83182	26.85684	0.1880636	2.458739	69.62361
10/24/2014 2:57:29 PM	14:57:29	0	A	1	-1	0	0	0	0	0	80.63605	83.36842	82.28659	14.2065	51.88	83.76506	-0.2599945	78.6088	-0.3169994	14.19414	0.0529995	0	1	1	0.15	-2	-0.2001953	7.623425E-05	13.94651	0.9816989	28.75837	26.97861	0.1881087	2.459329	69.64031
10/24/2014 2:57:39 PM	14:57:39	0	A	1	-1	0	0	0	0	0	80.81232	83.41249	82.28659	14.2065	51.88	83.67692	-0.2550049	78.78507	-0.3500004	14.194	5.500031E-02	0	1	1	0.15	-2	0	0	13.94651	0.9816989	28.7094	27.00295	0.191648	2.505601	70.9506
10/24/2014 2:57:49 PM	14:57:49	0	A	1	-1	0	0	0	0	0	80.76826	83.19214	82.27805	14.20687	51.89999	83.80913	-0.2550049	78.78507	-0.3500004	14.1943	0.0529995	0	1	1	0.15	-2	-0.2001953	7.623425E-05	13.95187	0.9820506	28.78285	26.91133	0.1898033	2.481483	70.26767
10/24/2014 2:57:59 PM	14:57:59	0	A	1	0	0	0	0	0	0	80.81232	82.88364	82.29517	14.2065	51.84	83.80913	-0.2550049	78.78507	-0.3379993	14.19418	5.200005E-02	0	1	1	0.15	-2	-0.2001953	0	13.9515	0.9820501	28.78285	26.74074	0.1880794	2.458945	69.62944
10/24/2014 2:58:09 PM	14:58:09	0	A	1	-1	0	0	0	0	0	80.94453	83.104	82.29517	14.2065	51.84	83.80913	-0.2550049	78.91729	-0.3500004	14.19374	0.0529995	0	1	1	0.15	-2	0	7.623425E-05	13.9515	0.9820501	28.78285	26.86257	0.1845248	2.412472	68.31349
10/24/2014 2:58:19 PM	14:58:19	0	A	1	-1	0	0	0	0	0	80.68011	83.104	82.28659	14.2065	51.72501	83.67692	-0.2550049	78.78507	-0.3419991	14.19411	0.0529995	0	1	1	0.15	-2	0	7.623425E-05	13.9515	0.9820501	28.7094	26.86257	0.1880789	2.458938	69.62926
10/24/2014 2:58:29 PM	14:58:29	0	A	1	0	0	0	0	0	0	80.59197	83.14807	82.28659	14.2065	51.77499	83.67692	-0.2550049	78.78507	-0.3689995	14.19335	0.0529995	0	1	1	0.15	-2	-0.2001953	0	13.94651	0.9816989	28.7094	26.85684	0.1862963	2.435633	68.96934
10/24/2014 2:58:39 PM	14:58:39	0	A	1	0	0	0	0	0	0	80.5479	83.23621	82.28659	14.2065	51.77499	83.80913	-0.2599945	78.91729	-0.3549995	14.19382	0.0510006	0	1	1	0.15	-2	0	0	13.94651	0.9816989	28.78285	26.90554	0.1845253	2.412478	68.31366
10/24/2014 2:58:49 PM	14:58:49	0	A	1	-1	0	0	0	0	0	80.63605	83.01585	82.28659	14.20613	51.86	83.72099	-0.2550049	78.69694	-0.3579998	14.1934	0.0510006	0	1	1	0.15	-2	0	7.623425E-05	13.94613	0.9816984	28.73388	26.78367	0.1845589	2.412918	68.3261
10/24/2014 2:58:59 PM	14:58:59	0	A	1	0	0	0	0	0	0	80.76826	83.32435	82.28659	14.2065	51.97	83.58878	-0.2599945	78.82915	-0.3549995	14.19385	5.500031E-02	0	1	1	0.15	-2	-0.2001953	0	13.9515	0.9820501	28.73388	26.98437	0.1897929	2.481347	70.26381
10/24/2014 2:59:09 PM	14:59:09	0	A	1	-1	0	0	0	0	0	80.76826	83.41249	82.28659	14.2065	51.97	83.72099	-0.2550049	78.82915	-0.3530006	14.19392	5.500031E-02	0	1	1	0.15	-2	-0.2001953	0	13.9515	0.9820501	28.73388	27.0331	0.19164	2.505496	70.94762
10/24/2014 2:59:19 PM	14:59:19	0	A	1	-1	0	0	0	0	0	80.72418	83.14807	82.28659	14.2065	51.94	83.63285	-0.2550049	78.87322	-0.3449993	14.19363	0.0529995	0	1	1	0.15	-2	0	7.623425E-05	13.9515	0.9820501	28.68492	26.88692	0.1880194	2.458161	69.60725
10/24/2014 2:59:29 PM	14:59:29	0	A	1	-1	0	0	0	0	0	80.8564	83.23621	82.31223	14.20538	51.94501	83.76506	-0.25	78.87322	-0.3470001	14.19265	0.0529995	0	1	1	0.15	-2	0	0	13.95037	0.9820487	28.75837	26.93551	0.1880129	2.458076	69.60485
10/24/2014 2:59:39 PM	14:59:39	0	A	1	-1	0	0	0	0	0	80.90047	83.32435	82.31223	14.20538	51.94501	83.63285	-0.25	78.87322	-0.3460007	14.19251	5.500031E-02	0	1	1	0.15	-2	0	7.623425E-05	13.95538	0.982401	28.68492	27.01445	0.193351	2.527866	71.58109
10/24/2014 2:59:49 PM	14:59:49	0	A	1	0	0	0	0	0	0	80.94453	83.05993	82.31223	14.2065	51.99001	83.50063	-0.25	78.87322	-0.3369999	14.19432	5.200005E-02	0	1	1	0.15	-2	0	0	13.9565	0.9824024	28.61146	26.86837	0.1845358	2.412616	68.31756
10/24/2014 2:59:59 PM	14:59:59	0	A	1	-1	0	0	0	0	0	80.76826	82.92772	82.35501	14.2065	52.06	83.67692	-0.25	79.0495	-0.3470001	14.19356	5.200005E-02	0	1	1	0.15	-2	-0.2001953	0	13.9615	0.9827547	28.7094	26.82548	0.1862538	2.435077	68.95358
10/24/2014 3:00:09 PM	15:00:09	0	A	1	-1	0	0	0	0	0	80.68011	82.92772	82.35501	14.2065	52.06	83.67692	-0.25	78.78507	-0.3619995	14.19353	5.500031E-02	0	1	1	0.15	-2	-0.2001953	7.623425E-05	13.9565	0.9824024	28.7094	26.7953	0.1897981	2.481416	70.26575
10/24/2014 3:00:19 PM	15:00:19	0	A	1	-1	0	0	0	0	0	80.98861	83.104	82.34644	14.20538	51.965	83.41249	-0.25	78.91729	-0.3540001	14.19298	0.0529995	0	1	1	0.15	-2	-0.2001953	0	13.95037	0.9820487	28.5625	26.86244	0.1897721	2.481075	70.25611
10/24/2014 3:00:29 PM	15:00:29	0	A	1	-1	0	0	0	0	0	80.8564	83.05993	82.36356	14.20613	51.94	83.5447	-0.2550049	78.91729	-0.3400002	14.19337	0.0529995	0	1	1	0.15	-2	-0.2001953	0	13.95613	0.982402	28.63595	26.86834	0.1862745	2.435348	68.96125
10/24/2014 3:00:39 PM	15:00:39	0	A	1	0	0	0	0	0	0	80.8564	82.97179	82.36356	14.20613	51.94	83.5447	-0.2550049	78.91729	-0.3630009	14.19348	0.0529995	0	1	1	0.15	-2	-0.2001953	7.623425E-05	13.95112	0.9820496	28.63595	26.78943	0.188011	2.458051	69.60413
10/24/2014 3:00:49 PM	15:00:49	0	A	1	-1	0	0	0	0	0	80.81232	83.23621	82.34644	14.20613	51.75	83.5447	-0.2550049	78.91729	-0.3419991	14.19351	5.500031E-02	0	1	1	0.15	-2	-0.2001953	7.623425E-05	13.95112	0.9820496	28.63595	26.93561	0.1897756	2.481122	70.25742
10/24/2014 3:00:59 PM	15:00:59	0	A	1	-1	0	0	0	0	0	80.68011	83.104	82.36356	14.20538	51.86501	83.41249	-0.2550049	78.78507	-0.3250008	14.1937	5.200005E-02	0	1	1	0.15	-2	0	0	13.95037	0.9820487	28.5625	26.86244	0.1845463	2.412754	68.32146
10/24/2014 3:01:09 PM	15:01:09	0	A	1	-1	0	0	0	0	0	80.90047	83.28028	82.36356	14.20538	51.86501	83.28028	-0.2550049	78.78507	-0.3460007	14.1928	0.0529995	0	1	1	0.15	-2	0	-7.623425E-05	13.95538	0.982401	28.48905	26.9901	0.1862927	2.435586	68.968
10/24/2014 3:01:19 PM	15:01:19	0	A	1	-1	0	0	0	0	0	80.98861	83.28028	82.39777	14.20575	51.92999	83.41249	-0.25	79.0495	-0.3269997	14.1948	0.0529995	0	1	1	0.15	-2	-0.2001953	0	13.95075	0.9820492	28.5625	26.95992	0.1862619	2.435183	68.9566
10/24/2014 3:01:29 PM	15:01:29	0	A	1	-1	0	0	0	0	0	80.8564	83.28028	82.38919	14.20538	51.87	83.45657	-0.25	78.82915	-0.3419991	14.19428	5.200005E-02	0	1	1	0.15	-2	0	0	13.95538	0.982401	28.58698	26.9901	0.1845428	2.412708	68.32015
10/24/2014 3:01:39 PM	15:01:39	0	A	1	0	0	0	0	0	0	80.98861	83.28028	82.38919	14.20538	51.87	83.32435	-0.2449951	78.96136	-0.3409996	14.19298	5.200005E-02	0	1	1	0.15	-2	-0.2001953	0	13.96038	0.9827533	28.51353	27.02028	0.1862646	2.435218	68.95758
10/24/2014 3:01:49 PM	15:01:49	0	A	1	0	0	0	0	0	0	80.8564	83.28028	82.39777	14.20538	51.765	83.45657	-0.25	78.82915	-0.3390007	14.1932	0.0510006	0	1	1	0.15	-2	0	0	13.95538	0.982401	28.58698	26.9901	0.1845357	2.412615	68.31754
10/24/2014 3:01:59 PM	15:01:59	0	A	1	-1	0	0	0	0	0	80.94453	83.05993	82.40631	14.20575	51.77	83.19214	-0.25	78.96136	-0.3269997	14.19415	4.999924E-02	0	1	1	0.15	-2	0.2001953	0	13.95575	0.9824015	28.44008	26.86831	0.1825984	2.387287	67.60033
10/24/2014 3:02:09 PM	15:02:09	0	A	1	-1	0	0	0	0	0	81.07675	83.32435	82.40631	14.20575	51.77	83.32435	-0.2449951	79.09357	-0.3460007	14.19285	0.0510006	0	1	1	0.15	-2	0	0	13.95575	0.9824015	28.51353	27.01448	0.1844899	2.412016	68.30058
10/24/2014 3:02:19 PM	15:02:19	0	A	1	-1	0	0	0	0	0	80.90047	83.14807	82.40631	14.20538	51.825	83.23621	-0.25	79.00543	-0.3209991	14.19356	4.899979E-02	0	1	1	0.15	-2	-0.2001953	0	13.95538	0.982401	28.46457	26.917	0.1807999	2.363773	66.93447
10/24/2014 3:02:29 PM	15:02:29	0	A	1	-1	0	0	0	0	0	80.94453	83.104	82.39777	14.20538	51.735	83.05993	-0.2449951	78.82915	-0.3439999	14.19378	5.200005E-02	0	1	1	0.15	-2	0	0	13.95538	0.982401	28.36663	26.89265	0.1880278	2.45827	69.61034
10/24/2014 3:02:39 PM	15:02:39	0	A	1	0	0	0	0	0	0	80.90047	83.14807	82.39777	14.20538	51.735	83.104	-0.25	78.87322	-0.3369999	14.1932	4.999924E-02	0	1	1	0.15	-2	-0.2001953	-7.623425E-05	13.95538	0.982401	28.39112	26.917	0.1826067	2.387395	67.60338
10/24/2014 3:02:49 PM	15:02:49	0	A	1	0	0	0	0	0	0	80.76826	83.104	82.41483	14.20538	51.73	83.23621	-0.25	78.87322	-0.3479996	14.19316	0.0510006	0	1	1	0.15	-2	-0.2001953	0	13.95538	0.982401	28.46457	26.89265	0.1845282	2.412517	68.31476
10/24/2014 3:02:59 PM	15:02:59	0	A	1	-1	0	0	0	0	0	80.81232	83.19214	82.43195	14.20613	51.7	83.104	-0.25	79.00543	-0.3519993	14.19366	4.999924E-02	0	1	1	0.15	-2	0	0	13.95112	0.9820496	28.39112	26.91123	0.1825881	2.387152	67.5965
10/24/2014 3:03:09 PM	15:03:09	0	A	1	-1	0	0	0	0	0	80.76826	83.14807	82.43195	14.20613	51.7	83.104	-0.2550049	78.87322	-0.3490009	14.19344	0.0510006	0	1	1	0.15	-2	0	0	13.95112	0.9820496	28.39112	26.88689	0.1826082	2.387415	67.60396
10/24/2014 3:03:19 PM	15:03:19	0	A	1	-1	0	0	0	0	0	80.50383	83.104	82.44049	14.20538	51.625	82.97179	-0.2550049	79.00543	-0.3659992	14.19182	0.0510006	0	1	1	0.15	-2	-0.2001953	7.623425E-05	13.95037	0.9820487	28.31766	26.86244	0.1879853	2.457714	69.5946
10/24/2014 3:03:29 PM	15:03:29	0	A	1	-1	0	0	0	0	0	80.81232	83.01585	82.45761	14.20538	51.56	82.97179	-0.2550049	79.13764	-0.3670006	14.19258	4.599953E-02	0	1	1	0.15	-2	0	7.623425E-05	13.94538	0.9816974	28.31766	26.7836	0.1825596	2.38678	67.58596
10/24/2014 3:03:39 PM	15:03:39	0	A	1	-1	0	0	0	0	0	80.68011	83.05993	82.45761	14.20538	51.56	82.97179	-0.2599945	79.00543	-0.3899994	14.19237	5.400085E-02	0	1	1	0.15	-2	-0.2001953	0	13.94538	0.9816974	28.31766	26.80795	0.1898556	2.482167	70.28703
10/24/2014 3:03:49 PM	15:03:49	0	A	1	0	0	0	0	0	0	80.72418	83.36842	82.46616	14.20538	51.645	82.83958	-0.2599945	78.87322	-0.3920002	14.19186	4.899979E-02	0	1	1	0.15	-2	0	0	13.94538	0.9816974	28.24421	26.97847	0.1808103	2.36391	66.93835
10/24/2014 3:03:59 PM	15:03:59	0	A	1	0	0	0	0	0	0	80.59197	83.32435	82.48325	14.205	51.61	82.97179	-0.2599945	79.00543	-0.3430004	14.19275	5.599976E-02	0	1	1	0.15	-2	0	0	13.94501	0.981697	28.31766	26.95406	0.1879914	2.457795	69.59688
10/24/2014 3:04:09 PM	15:04:09	0	A	1	-1	0	0	0	0	0	80.59197	83.28028	82.48325	14.205	51.61	83.01585	-0.2649994	78.91729	-0.3360004	14.19159	4.700089E-02	0	1	1	0.15	-2	-0.2001953	7.623425E-05	13.94	0.9813446	28.34214	26.8995	0.177128	2.315767	65.57512
10/24/2014 3:04:19 PM	15:04:19	0	A	1	-1	0	0	0	0	0	80.68011	83.50063	82.49179	14.205	51.785	82.88364	-0.2599945	79.0495	-0.3549995	14.19184	0.0529995	0	1	1	0.15	-2	0	7.623425E-05	13.94501	0.981697	28.26869	27.05148	0.1862425	2.43493	68.94941
10/24/2014 3:04:29 PM	15:04:29	0	A	1	-1	0	0	0	0	0	80.68011	83.72099	82.50037	14.20425	51.85001	83.01585	-0.2649994	78.91729	-0.3530006	14.19142	0.0529995	0	1	1	0.15	-2	-0.2001953	0	13.93925	0.9813436	28.34214	27.14296	0.1879974	2.457873	69.59909
10/24/2014 3:04:39 PM	15:04:39	0	A	1	0	0	0	0	0	0	80.59197	83.36842	82.50037	14.20425	51.85001	82.88364	-0.2599945	79.0495	-0.3740005	14.19153	5.200005E-02	0	1	1	0.15	-2	0	0	13.94426	0.981696	28.26869	26.97834	0.1807366	2.362946	66.91106
10/24/2014 3:04:49 PM	15:04:49	0	A	1	-1	0	0	0	0	0	80.76826	83.58878	82.50037	14.205	51.935	82.88364	-0.2550049	79.18172	-0.368	14.19322	5.400085E-02	0	1	1	0.15	-2	0	7.623425E-05	13.94501	0.981697	28.26869	27.1002	0.1770964	2.315353	65.56339
10/24/2014 3:04:59 PM	15:04:59	0	A	1	-1	0	0	0	0	0	80.59197	83.5447	82.47473	14.205	52.06	82.92772	-0.2599945	79.09357	-0.3840008	14.19156	0.0529995	0	1	1	0.15	-2	0	7.623425E-05	13.94501	0.981697	28.29318	27.07586	0.1879687	2.457498	69.58846
10/24/2014 3:05:09 PM	15:05:09	0	A	1	-1	0	0	0	0	0	80.72418	83.80913	82.47473	14.205	52.06	82.75143	-0.2599945	78.91729	-0.4020004	14.19188	5.400085E-02	0	1	1	0.15	-2	0	0	13.94501	0.981697	28.19524	27.22197	0.1898672	2.482319	70.29134
10/24/2014 3:05:19 PM	15:05:19	0	A	1	0	0	0	0	0	0	80.72418	83.67692	82.48325	14.20425	52.10001	82.7955	-0.2550049	78.96136	-0.3789997	14.1903	5.500031E-02	0	1	1	0.15	-2	0	7.623425E-05	13.94925	0.9820473	28.21972	27.17897	0.1915521	2.504347	70.91508
10/24/2014 3:05:29 PM	15:05:29	0	A	1	-1	0	0	0	0	0	80.68011	83.45657	82.46616	14.20462	52.16499	82.7955	-0.2599945	78.96136	-0.3810005	14.19035	4.899979E-02	0	1	1	0.15	-2	-0.6000977	3.045651E-04	13.94962	0.9820477	28.21972	27.05721	0.1862473	2.434993	68.95119
10/24/2014 3:05:39 PM	15:05:39	0	A	1	-1	0	0	0	0	0	80.68011	83.45657	82.46616	14.20462	52.16499	82.83958	-0.2599945	79.13764	-0.3530006	14.19086	4.700089E-02	0	1	1	0.15	-2	0	-7.623425E-05	13.94463	0.9816965	28.24421	27.0271	0.1770886	2.315251	65.56051
10/24/2014 3:05:49 PM	15:05:49	0	A	1	0	0	0	0	0	0	80.68011	83.50063	82.46616	14.20425	52.21001	82.97179	-0.2599945	79.00543	-0.4090004	14.18878	4.599953E-02	0	1	1	0.15	-2	0.2001953	0	13.94425	0.981696	28.31766	27.05141	0.1752053	2.290629	64.86329
10/24/2014 3:05:59 PM	15:05:59	0	A	1	-1	0	0	0	0	0	80.50383	83.32435	82.47473	14.20425	52.255	82.83958	-0.2599945	79.13764	-0.3689995	14.19117	5.200005E-02	0	1	1	0.15	-2	0	0	13.94426	0.981696	28.24421	26.95399	0.1898251	2.481769	70.27574
10/24/2014 3:06:09 PM	15:06:09	0	A	1	-1	0	0	0	0	0	80.63605	83.80913	82.47473	14.20425	52.255	82.83958	-0.2599945	79.13764	-0.3880005	14.18965	4.700089E-02	0	1	1	0.15	-2	-0.3999023	1.522825E-04	13.94426	0.981696	28.24421	27.2219	0.177081	2.315153	65.55771
10/24/2014 3:06:19 PM	15:06:19	0	A	1	-1	0	0	0	0	0	80.68011	83.72099	82.49179	14.20425	52.28999	82.88364	-0.2599945	79.0495	-0.3439999	14.19095	0.0510006	0	1	1	0.15	-2	-0.2001953	7.623425E-05	13.94426	0.981696	28.26869	27.17321	0.1862366	2.434853	68.94724
10/24/2014 3:06:29 PM	15:06:29	0	A	1	-1	0	0	0	0	0	80.76826	83.89727	82.50037	14.20462	52.13	82.70737	-0.2599945	79.00543	-0.3710003	14.19089	5.900002E-02	0	1	1	0.15	-2	-0.2001953	7.623425E-05	13.94962	0.9820477	28.17076	27.30081	0.198433	2.594308	73.4625
10/24/2014 3:06:39 PM	15:06:39	0	A	1	-1	0	0	0	0	0	80.72418	83.80913	82.50037	14.20462	52.13	82.88364	-0.2599945	79.0495	-0.3409996	14.19248	0.0529995	0	1	1	0.15	-2	-0.2001953	0	13.94962	0.9820477	28.26869	27.25208	0.1879822	2.457675	69.59348
10/24/2014 3:06:49 PM	15:06:49	0	A	1	-1	0	0	0	0	0	80.68011	83.89727	82.50888	14.205	52.065	82.88364	-0.2550049	78.91729	-0.3419991	14.19228	5.200005E-02	0	1	1	0.15	-2	0	7.623425E-05	13.95	0.9820482	28.26869	27.30084	0.1862673	2.435254	68.9586
10/24/2014 3:06:59 PM	15:06:59	0	A	1	-1	0	0	0	0	0	80.81232	84.02948	82.50037	14.20425	51.985	82.88364	-0.2550049	79.0495	-0.3560009	14.19109	5.200005E-02	0	3	1	0.15	-2	0	0	13.95425	0.9823996	28.26869	27.40409	0.1898396	2.481958	70.28111
10/24/2014 3:07:09 PM	15:07:09	0	A	1	-1	0	0	0	0	0	80.94453	84.02948	82.50037	14.20425	51.985	82.88364	-0.25	79.0495	-0.3239994	14.19048	5.200005E-02	0	3	1	0.15	-2	0	7.623425E-05	13.94924	0.9820473	28.26869	27.37384	0.1807299	2.362858	66.90858
10/24/2014 3:07:19 PM	15:07:19	0	A	1	-1	0	0	0	0	0	80.90047	83.67692	82.49179	14.205	51.955	82.7955	-0.25	79.22578	-0.3659992	14.19159	5.599976E-02	0	3	1	0.15	-2	0	7.623425E-05	13.95	0.9820482	28.21972	27.17908	0.18446	2.411626	68.28952
10/24/2014 3:07:29 PM	15:07:29	0	A	1	-1	0	0	0	0	0	80.98861	83.8532	82.526	14.20462	51.97501	82.7955	-0.2550049	79.22578	-0.3530006	14.19143	5.599976E-02	0	3	1	0.15	-2	-0.2001953	7.623425E-05	13.95462	0.9824001	28.21972	27.30671	0.1932829	2.526975	71.55585
10/24/2014 3:07:39 PM	15:07:39	0	A	1	-1	0	0	0	0	0	80.94453	83.63285	82.526	14.20462	51.97501	82.7955	-0.2550049	79.09357	-0.3910007	14.19179	5.400085E-02	0	3	1	0.15	-2	0	0	13.95462	0.9824001	28.21972	27.18491	0.1933081	2.527305	71.56519
10/24/2014 3:07:49 PM	15:07:49	0	A	1	-1	0	0	0	0	0	80.8564	83.80913	82.526	14.20425	51.745	82.66329	-0.2550049	79.09357	-0.3840008	14.18997	5.200005E-02	0	3	1	0.15	-2	-0.2001953	0	13.95425	0.9823996	28.14627	27.28229	0.1915273	2.504022	70.9059
10/24/2014 3:07:59 PM	15:07:59	0	A	1	-1	0	0	0	0	0	80.81232	83.80913	82.53455	14.205	51.685	82.7955	-0.25	79.09357	-0.3899994	14.19192	5.400085E-02	0	3	1	0.15	-2	-0.3999023	1.522825E-04	13.955	0.9824005	28.21972	27.28236	0.1898376	2.481932	70.28037
10/24/2014 3:08:09 PM	15:08:09	0	A	1	-1	0	0	0	0	0	80.63605	83.80913	82.53455	14.205	51.685	82.7955	-0.2550049	79.09357	-0.3789997	14.19036	5.500031E-02	0	3	1	0.15	-2	-0.2001953	0	13.94501	0.981697	28.21972	27.22197	0.1915299	2.504057	70.90687
10/24/2014 3:08:19 PM	15:08:19	0	A	1	-1	0	0	0	0	0	80.63605	83.94134	82.55164	14.20425	51.675	82.83958	-0.2550049	79.26985	-0.3500004	14.19102	5.599976E-02	0	3	1	0.15	-2	0	0	13.94426	0.981696	28.24421	27.29497	0.1932725	2.526839	71.55201
10/24/2014 3:08:29 PM	15:08:29	0	A	1	-1	0	0	0	0	0	80.68011	83.72099	82.56021	14.20462	51.71001	82.83958	-0.2550049	79.13764	-0.3430004	14.19161	0.0529995	0	3	1	0.15	-2	0	7.623425E-05	13.94463	0.9816965	28.24421	27.17324	0.1879617	2.457406	69.58588
10/24/2014 3:08:39 PM	15:08:39	0	A	1	-1	0	0	0	0	0	80.59197	83.45657	82.56021	14.20462	51.71001	82.83958	-0.2599945	79.13764	-0.3829994	14.19093	5.800056E-02	0	3	1	0.15	-2	-0.2001953	7.623425E-05	13.94962	0.9820477	28.24421	27.05721	0.1966282	2.570713	72.79435
10/24/2014 3:08:49 PM	15:08:49	0	A	1	-1	0	0	0	0	0	80.8564	83.76506	82.56876	14.20425	51.73	82.83958	-0.2599945	79.31393	-0.3500004	14.19033	5.400085E-02	0	3	1	0.15	-2	-0.2001953	7.623425E-05	13.94425	0.981696	28.24421	27.19756	0.1932602	2.526679	71.54745
10/24/2014 3:08:59 PM	15:08:59	0	A	1	-1	0	0	0	0	0	80.72418	83.8532	82.61151	14.20462	51.73	82.88364	-0.2550049	79.18172	-0.3840008	14.19154	5.500031E-02	0	3	1	0.15	-2	0	0	13.94463	0.9816965	28.26869	27.24628	0.1915228	2.503964	70.90425
10/24/2014 3:09:09 PM	15:09:09	0	A	1	0	0	0	0	0	0	80.8564	84.02948	82.61151	14.20462	51.73	82.75143	-0.2599945	79.18172	-0.3129997	14.19313	5.200005E-02	0	3	1	0.15	-2	0	0	13.94962	0.9820477	28.19524	27.37388	0.1807687	2.363364	66.92292
10/24/2014 3:09:19 PM	15:09:19	0	A	1	-1	0	0	0	0	0	80.68011	83.67692	82.59439	14.20425	51.71001	82.92772	-0.2550049	79.22578	-0.3470001	14.19084	4.999924E-02	0	3	1	0.15	-2	-0.2001953	7.623425E-05	13.94924	0.9820473	28.29318	27.17897	0.1825341	2.386446	67.5765
10/24/2014 3:09:29 PM	15:09:29	0	A	1	0	0	0	0	0	0	80.68011	83.76506	82.6286	14.20387	51.66	82.88364	-0.2550049	79.0495	-0.3250008	14.18949	4.500008E-02	0	3	1	0.15	-2	0	0	13.94887	0.9820468	28.26869	27.22766	0.1732946	2.265649	64.15593
10/24/2014 3:09:39 PM	15:09:39	0	A	1	0	0	0	0	0	0	80.90047	83.76506	82.6286	14.20387	51.66	82.7955	-0.25	79.22578	-0.3810005	14.19155	0.0529995	0	3	1	0.15	-2	-0.2001953	0	13.95387	0.9823992	28.21972	27.25788	0.1879465	2.457207	69.58025
10/24/2014 3:09:49 PM	15:09:49	0	A	1	-1	0	0	0	0	0	80.8564	83.32435	82.62003	14.2035	51.72501	82.92772	-0.2449951	79.22578	-0.3789997	14.19078	4.999924E-02	0	3	1	0.15	-2	0.2001953	0	13.9585	0.9827511	28.29318	27.04446	0.1862062	2.434455	68.93597
10/24/2014 3:09:59 PM	15:09:59	0	A	1	-1	0	0	0	0	0	80.76826	83.14807	82.61151	14.20387	51.73	82.7955	-0.25	79.22578	-0.3339996	14.19231	4.999924E-02	0	3	1	0.15	-2	0	0	13.95888	0.9827515	28.21972	26.94704	0.1825435	2.386569	67.58
10/24/2014 3:10:09 PM	15:10:09	0	A	1	13	18.57143	9493.715	12	20	7000	81.78188	83.45657	82.61151	14.20387	51.73	82.7955	1.149994	79.22578	-0.3519993	14.19144	5.400085E-02	0	3	1	0.15	-2	1.799805	-6.853645E-04	15.29888	1.077092	28.21972	34.9402	0.1915146	2.503857	70.90122
10/24/2014 3:10:19 PM	15:10:19	0	A	1	33	47.14286	24099.43	37	47.14286	16500	1203.704	83.19214	82.63715	14.20387	51.715	83.05993	9.809998	79.22578	-0.3460007	14.1909	5.500031E-02	0	3	1	0.15	618	7.600098	0.8942807	24.00887	1.690304	28.36663	76.29468	0.191511	2.503809	70.89986
10/24/2014 3:10:29 PM	15:10:29	0	A	1	42	60	30672	29	38.57143	13500	992.9172	83.28028	82.6286	14.20387	51.675	83.32435	16.53999	79.22578	-0.3500004	14.19079	4.800034E-02	0	3	1	0.15	1878	28.2002	10.01198	30.80388	2.168696	28.51353	101.6648	0.1825338	2.386441	67.57639
10/24/2014 3:10:39 PM	15:10:39	0	A	1	42	60	30672	31	37.14286	13000	1021.31	83.5447	82.6286	14.20387	51.675	83.98541	16.60001	79.22578	-0.3610001	14.19054	4.700089E-02	0	3	1	0.15	2324	36.2002	16.10655	30.88887	2.174679	28.88079	102.1373	0.1770727	2.315043	65.55462
10/24/2014 3:10:49 PM	15:10:49	0	A	1	42	60	30672	28	41.42857	14500	1024.014	83.58878	82.64569	14.20387	51.58	84.69054	16.64999	79.26985	-0.3659992	14.19133	4.700089E-02	0	3	1	0.15	2467	38.7998	18.31892	30.88887	2.174679	29.27253	102.1678	0.1770707	2.315017	65.55389
10/24/2014 3:10:59 PM	15:10:59	0	A	1	42	60	30672	29	42.85714	15000	1022.915	83.72099	82.63715	14.2035	51.545	85.21939	16.505	79.40207	-0.3610001	14.18998	4.599953E-02	0	3	1	0.15	2526	39	18.75703	30.8185	2.169783	29.56633	102.0217	0.1751507	2.289916	64.84309
10/24/2014 3:11:09 PM	15:11:09	0	A	1	42	60	30672	31	41.42857	14500	1019.747	83.72099	82.63715	14.2035	51.545	86.01266	16.99001	79.26985	-0.3759995	14.19096	4.500008E-02	0	3	1	0.15	2565	40	19.43724	30.97849	2.181046	30.00703	102.5671	0.1731572	2.263852	64.10505
10/24/2014 3:11:19 PM	15:11:19	0	A	1	42	60	30672	30	42.85714	15000	1014.508	83.36842	82.63715	14.2035	51.375	86.67372	16.995	79.40207	-0.3409996	14.19092	4.700089E-02	0	3	1	0.15	2571	40	19.5807	31.1985	2.196536	30.37429	103.0696	0.1806759	2.362152	66.88857
10/24/2014 3:11:29 PM	15:11:29	0	A	1	42	60	30672	30	42.85714	15000	1012.184	83.50063	82.6286	14.20387	51.315	87.20257	16.97	79.40207	-0.3670006	14.19206	5.200005E-02	0	3	1	0.15	2586	40	19.69494	31.26387	2.201081	30.66809	103.3795	0.184434	2.411286	68.27989
10/24/2014 3:11:39 PM	15:11:39	0	A	1	42	60	30672	29	41.42857	14500	1009.395	83.63285	82.6286	14.20387	51.315	88.03991	16.92999	79.31393	-0.3299999	14.19079	4.800034E-02	0	3	1	0.15	2581	40.7998	19.95176	31.32387	2.205305	31.13328	103.6738	0.1861916	2.434265	68.93058
10/24/2014 3:11:49 PM	15:11:49	0	A	1	42	60	30672	30	42.85714	15000	1005.846	83.8532	82.6286	14.20313	51.19501	93.32839	16.61501	79.31393	0.1529999	14.20772	0.618	1	3	1	0.15	2578	39.7998	19.43772	30.54813	2.150803	34.07133	101.1891	0.6417431	8.390132	237.5817
10/24/2014 3:11:59 PM	15:11:59	0	A	1	42	60	30672	30	42.85714	15000	1011.592	84.07355	82.62003	14.2035	51.25	155.9972	16.605	79.44614	0.1790009	14.2087	0.6089993	1	3	1	0.15	2570	39.7998	19.47513	30.9485	2.178934	68.88736	102.7087	0.6370353	8.328583	235.8388
10/24/2014 3:12:09 PM	15:12:09	0	A	1	45	64.28571	32862.86	30	42.85714	15000	1042.647	84.95496	82.62003	14.2035	51.25	172.691	20.71001	79.71056	0.2870007	14.2155	0.743	1	3	1	0.15	2613	40.3999	20.09953	34.52351	2.430634	78.16165	115.0437	0.7025488	9.185105	260.0928
10/24/2014 3:12:19 PM	15:12:19	0	A	1	53	75.71429	38705.14	45	64.28571	22500	1093.559	85.6601	82.6286	14.2035	51.36501	204.4264	30.45	80.01905	0.7269993	14.23014	1.205	1	3	1	0.15	3856	52.7998	38.618	44.8585	3.158271	92.24216	145.1812	0.8955321	11.70816	331.5377
10/24/2014 3:12:29 PM	15:12:29	0	A	1	57	81.42857	41626.28	62	88.57143	31000	1110.671	85.04311	82.62003	14.20387	51.255	231.4233	37.63	80.28348	1.101	14.24197	1.584999	1	3	1	0.15	5301	53.7998	53.89698	52.24387	3.678142	110.7907	162.9608	1.025422	13.40635	379.6248
10/24/2014 3:12:39 PM	15:12:39	0	A	1	53	77.14286	39435.43	64	91.42857	32000	1075.687	84.11762	82.62003	14.20387	51.255	246.0386	30.12	80.5479	0.6879997	14.22596	1.136	1	3	1	0.15	5549	50.2002	53.24889	44.03888	3.100484	118.9103	141.8422	0.8690284	11.36165	321.7257
10/24/2014 3:12:49 PM	15:12:49	0	A	1	53	74.28571	37974.86	64	91.42857	32000	1032.76	84.95496	82.63715	14.20387	51.31	252.1687	29.61	80.72418	0.6289997	14.22737	1.115999	1	3	1	0.15	5453	51.7998	53.78111	43.77887	3.082178	122.3159	141.7912	0.85935	11.23512	318.1426
10/24/2014 3:12:59 PM	15:12:59	0	A	1	53	75.71429	38705.14	64	91.42857	32000	1041.971	84.86683	82.63715	14.2035	51.36	258.2988	28.75999	81.03268	0.618	14.22435	1.063999	1	3	1	0.15	5473	45.2002	47.72602	42.9885	3.026613	125.7216	139.6118	0.8406928	10.9912	311.2355
10/24/2014 3:13:09 PM	15:13:09	0	A	1	54	77.14286	39435.43	64	91.42857	32000	1048.097	85.61603	82.63715	14.2035	51.36	262.1357	30.565	81.16489	0.6599998	14.22949	1.152	1	3	1	0.15	5477	50	52.76674	44.6135	3.141021	127.8531	144.5051	0.8747386	11.43631	323.8397
10/24/2014 3:13:19 PM	15:13:19	0	A	1	53	75.71429	38705.14	65	92.85714	32500	1032.168	85.08717	82.63715	14.2035	51.605	268.6627	29.60001	81.34118	0.6359997	14.2258	1.073999	1	3	1	0.15	5590	51.6001	54.91974	43.74349	3.079768	131.4793	141.8009	0.8510661	11.12681	315.0758
10/24/2014 3:13:29 PM	15:13:29	0	A	1	55	78.57143	40165.71	67	95.71428	33500	1059.082	84.95496	82.6286	14.20387	51.72501	273.3815	31.875	81.56152	0.7420006	14.23033	1.177	1	3	1	0.15	5792	47.3999	51.39035	45.99887	3.238473	134.1009	147.5903	0.8872072	11.59932	328.4557
10/24/2014 3:13:39 PM	15:13:39	0	A	1	53	75.71429	38705.14	68	97.14286	34000	1011.17	84.33797	82.6286	14.20387	51.72501	276.3804	29.435	81.78188	0.5739994	14.22585	1.073	1	3	1	0.15	5810	44.7998	50.44384	43.61887	3.070913	135.7669	140.8955	0.844861	11.04569	312.7786
10/24/2014 3:13:49 PM	15:13:49	0	A	1	54	77.14286	39435.43	67	95.71428	33500	1046.576	83.80913	82.63715	14.20462	51.69501	278.2768	31.31	81.95816	0.698	14.2297	1.167999	1	3	1	0.15	5787	47.2002	52.22725	45.33463	3.19154	136.8204	144.9889	0.8801159	11.50661	325.8304
10/24/2014 3:13:59 PM	15:13:59	0	A	1	54	75.71429	38705.14	67	95.71428	33500	1034.154	84.11762	82.63715	14.20425	51.48	281.1875	30.11	82.22259	0.5750008	14.22618	1.101	1	3	1	0.15	5773	45.7998	52.54045	44.35424	3.122604	138.4375	142.6708	0.8554189	11.18372	316.6873
10/24/2014 3:14:09 PM	15:14:09	0	A	1	54	77.14286	39435.43	67	95.71428	33500	1049.703	85.43974	82.63715	14.20425	51.48	285.6425	31.77	82.26665	0.7059994	14.22745	1.174	1	3	1	0.15	5760	50.6001	55.27368	46.22425	3.254255	140.9125	148.5395	0.8820629	11.53207	326.5512
10/24/2014 3:14:19 PM	15:14:19	0	A	1	54	77.14286	39435.43	67	95.71428	33500	1039.098	84.86683	82.63715	14.20313	51.325	288.6424	31.17	82.44294	0.6000004	14.22582	1.136999	1	3	1	0.15	5788	52.2002	57.52635	45.21812	3.183674	142.5791	145.5127	0.867901	11.34692	321.3083
10/24/2014 3:14:29 PM	15:14:29	0	A	1	55	77.14286	39435.43	67	95.71428	33500	1042.689	86.1008	82.64569	14.2035	51.315	290.7916	31.38499	82.57515	0.7099991	14.22696	1.136999	1	3	1	0.15	5777	52.3999	57.63669	45.6435	3.213539	143.7731	147.5621	0.8678075	11.34569	321.2737
10/24/2014 3:14:39 PM	15:14:39	0	A	1	55	78.57143	40165.71	67	95.71428	33500	1043.111	85.70416	82.64569	14.2035	51.315	296.3436	33.75	82.61922	0.7700005	14.23126	1.237	1	3	1	0.15	5759	62.7998	67.32571	48.0285	3.381455	146.8576	153.3073	0.9051569	11.834	335.101
10/24/2014 3:14:49 PM	15:14:49	0	A	1	56	81.42857	41626.28	66	94.28571	33000	1053.209	85.7923	82.64569	14.2035	51.32001	305.0746	35.62	82.75143	0.8700008	14.234	1.349001	1	3	1	0.15	5730	71.6001	80.29698	49.6885	3.498328	151.7081	157.4621	0.9398175	12.28715	347.9327
10/24/2014 3:14:59 PM	15:14:59	0	A	1	56	81.42857	41626.28	66	94.28571	33000	1050.083	85.04311	82.64569	14.20387	51.36501	310.4028	35.71001	83.104	0.8579998	14.23311	1.32	1	3	1	0.15	5728	69.2002	76.99713	49.66887	3.496854	154.6682	156.8198	0.9345537	12.21833	345.984
10/24/2014 3:15:09 PM	15:15:09	0	A	1	56	80	40896	67	95.71428	33500	1055.871	85.17532	82.64569	14.20387	51.36501	315.1489	35.52499	83.14807	0.8190002	14.23409	1.320999	1	3	1	0.15	5735	75.3999	80.14845	49.80887	3.50671	157.3049	157.2639	0.9324398	12.19069	345.2014
10/24/2014 3:15:19 PM	15:15:19	0	A	1	57	81.42857	41626.28	67	95.71428	33500	1056.589	85.61603	82.65424	14.2035	51.37	318.9099	35.46001	83.41249	0.7880001	14.23346	1.32	1	3	1	0.15	5732	71.6001	77.0509	49.72849	3.501144	159.3944	157.4201	0.9329004	12.19672	345.3719
10/24/2014 3:15:29 PM	15:15:29	0	A	1	58	82.85715	42356.57	67	95.71428	33500	1071.039	85.48381	82.65424	14.2035	51.28	324.8201	37.78	83.41249	0.9710007	14.23834	1.419001	1	3	1	0.15	5708	78.3999	87.37872	51.8785	3.652515	162.6779	162.4583	0.9666955	12.63855	357.8833
10/24/2014 3:15:39 PM	15:15:39	0	A	1	59	84.28571	43086.86	67	94.28571	33000	1095.165	85.3516	82.65424	14.2035	51.28	335.7899	39.42	83.63285	0.9669991	14.23921	1.509001	1	3	1	0.15	5692	89.2002	97.32098	53.4285	3.761643	168.7722	165.9648	0.9987023	13.05701	369.7327
10/24/2014 3:15:49 PM	15:15:49	0	A	1	59	85.71429	43817.14	66	94.28571	33000	1112.699	86.36523	82.66281	14.20313	51.14	345.5513	41.16499	83.67692	1.054001	14.2431	1.565001	1	3	1	0.15	5668	96.7998	104.681	55.26813	3.891265	174.1952	170.9832	1.021285	13.35225	378.0931
10/24/2014 3:15:59 PM	15:15:59	0	A	1	60	85.71429	43817.14	66	95.71428	33500	1126.346	87.68735	82.66281	14.20387	51.13	355.3214	42.03999	83.58878	1.124001	14.24399	1.575001	1	3	1	0.15	5695	105.7998	108.2155	56.57387	3.982988	179.623	174.9784	1.020435	13.34114	377.7784
10/24/2014 3:16:09 PM	15:16:09	0	A	1	60	85.71429	43817.14	67	95.71428	33500	1110.586	87.20257	82.66281	14.20387	51.13	362.1199	41.88499	83.63285	1.087999	14.24486	1.580999	1	3	1	0.15	5781	101.6001	112.0511	56.06387	3.947083	183.3999	173.4453	1.02235	13.36618	378.4875
10/24/2014 3:16:19 PM	15:16:19	0	A	1	60	85.71429	43817.14	68	97.14286	34000	1109.023	86.76186	82.67136	14.20387	51.125	366.3521	41.84	83.80913	1.096001	14.24428	1.594	1	3	1	0.15	5800	100.2002	110.8734	56.46887	3.975596	185.7511	173.9875	1.02633	13.41821	379.9606
10/24/2014 3:16:29 PM	15:16:29	0	A	1	60	85.71429	43817.14	68	97.14286	34000	1104.122	85.70416	82.67136	14.2035	51.16	368.9634	42.08501	83.8532	1.101	14.23989	1.565001	1	3	1	0.15	5840	101.3999	112.9726	55.8735	3.933784	187.2019	171.8001	1.016807	13.29371	376.4354
10/24/2014 3:16:39 PM	15:16:39	0	A	1	60	85.71429	43817.14	69	98.57143	34500	1129.641	87.77548	82.67136	14.2035	51.16	373.871	42.57001	84.02948	1.037001	14.24282	1.593	1	3	1	0.15	5908	98.6001	108.6636	56.7935	3.998557	189.9283	175.5414	1.025765	13.41083	379.7518
10/24/2014 3:16:49 PM	15:16:49	0	A	1	60	85.71429	43817.14	69	98.57143	34500	1116.628	88.03991	82.69699	14.20425	51.16	378.1482	42.55	83.94134	1.099001	14.24346	1.573999	1	3	1	0.15	5913	103	115.5106	57.21424	4.027966	192.3046	176.6821	1.019761	13.33233	377.529
10/24/2014 3:16:59 PM	15:16:59	0	A	1	61	87.14285	44547.43	69	98.57143	34500	1120.684	86.93814	82.68845	14.20387	51.05	379.4539	42.55	84.07355	1.077999	14.24269	1.561001	1	3	1	0.15	5923	102.3999	115.255	56.65387	3.988621	193.0299	174.5425	1.015403	13.27535	375.9155
10/24/2014 3:17:09 PM	15:17:09	0	A	1	60	85.71429	43817.14	69	98.57143	34500	1113.966	86.80593	82.68845	14.20387	51.05	382.1553	43.485	84.07355	1.156	14.24309	1.586	1	3	1	0.15	5941	99.2002	114.0211	57.14388	4.023119	194.5307	176.1683	1.023484	13.38101	378.9073
10/24/2014 3:17:19 PM	15:17:19	0	A	1	60	85.71429	43817.14	70	98.57143	34500	1118.783	86.40929	82.67136	14.2035	51.05499	382.6505	42.45	84.1617	1.042	14.2443	1.561001	1	3	1	0.15	5959	101	115.2746	57.0335	4.015454	194.8058	174.9515	1.015382	13.27508	375.9077
10/24/2014 3:17:29 PM	15:17:29	0	A	1	60	87.14285	44547.43	68	97.14286	34000	1127.106	85.43974	82.67136	14.20387	51.22501	384.0012	43.435	84.1617	1.093	14.24066	1.573999	1	3	1	0.15	5851	112.2002	126.5538	57.31387	4.035087	195.5562	174.7685	1.019443	13.32817	377.4111
10/24/2014 3:17:39 PM	15:17:39	0	A	1	61	87.14285	44547.43	66	94.28571	33000	1129.684	86.05673	82.67136	14.20387	51.22501	388.5936	43.705	84.42612	1.063	14.245	1.593	1	3	1	0.15	5659	121.2002	128.65	58.22388	4.099154	198.1076	177.2618	1.025455	13.40677	379.6368
10/24/2014 3:17:49 PM	15:17:49	0	A	1	63	90	46008	65	92.85714	32500	1155.281	86.05673	82.66281	14.20313	51.185	390.3945	46.515	84.20576	1.292999	14.24902	1.761	1	3	1	0.15	5577	124.6001	133.5816	60.85312	4.284488	199.1081	182.8849	1.077082	14.08175	398.75
10/24/2014 3:17:59 PM	15:17:59	0	A	1	62	88.57143	45277.71	70	100	35000	1181.937	87.07035	82.66281	14.2035	51.145	399.2191	46.005	84.38205	1.283001	14.24604	1.739	1	3	1	0.15	6021	124.7998	141.6947	60.53851	4.262224	204.0106	183.0646	1.071612	14.01023	396.7247
10/24/2014 3:18:09 PM	15:18:09	0	A	1	62	88.57143	45277.71	69	98.57143	34500	1164.294	86.36523	82.66281	14.2035	51.145	399.7144	46.39999	84.55833	1.243999	14.2498	1.733	1	3	1	0.15	5973	116	134.8788	60.14851	4.234766	204.2858	181.6507	1.069738	13.98573	396.0311
10/24/2014 3:18:19 PM	15:18:19	0	A	1	63	90	46008	69	100	35000	1181.512	86.36523	82.64569	14.20313	51.09	401.7854	48.12	84.51426	1.458	14.25564	1.819	1	3	1	0.15	5944	133.2002	151.2	62.33313	4.388691	205.4364	186.2295	1.092463	14.28283	404.444
10/24/2014 3:18:29 PM	15:18:29	0	A	1	63	90	46008	68	97.14286	34000	1201.961	85.52789	82.65424	14.20275	51.13499	406.0176	48.345	84.69054	1.523001	14.25447	1.856001	1	3	1	0.15	5835	144	161.0924	62.84776	4.425041	207.7876	186.5878	1.106582	14.46742	409.6711
10/24/2014 3:18:39 PM	15:18:39	0	A	1	63	91.42857	46738.29	68	97.14286	34000	1208.296	86.05673	82.65424	14.20275	51.13499	410.0697	49.11501	84.82275	1.422001	14.25194	1.853001	1	3	1	0.15	5783	141.7998	154.3718	62.97276	4.433842	210.0388	187.2904	1.105451	14.45263	409.2523
10/24/2014 3:18:49 PM	15:18:49	0	A	1	64	91.42857	46738.29	68	97.14286	34000	1206.808	85.30753	82.67136	14.20313	51.065	411.3304	50.315	84.86683	1.461	14.25697	1.916	1	3	1	0.15	5822	143.6001	163.3938	64.12813	4.515072	210.7391	189.0064	1.12765	14.74287	417.4709
10/24/2014 3:18:59 PM	15:18:59	0	A	1	63	91.42857	46738.29	70	100	35000	1214.758	84.69054	82.66281	14.20238	51.045	415.2024	49.2	85.08717	1.448999	14.25138	1.885	1	3	1	0.15	5978	148.3999	168.2271	63.23238	4.45224	212.8902	186.6716	1.11463	14.57265	412.6507
10/24/2014 3:19:09 PM	15:19:09	0	A	1	65	92.85714	47468.57	69	98.57143	34500	1238.224	84.29391	82.66281	14.20238	51.045	418.219	51.095	85.13125	1.472	14.25745	1.987	1	3	1	0.15	5933	149.2002	169.4462	65.10237	4.583907	214.5661	190.1093	1.144413	14.96203	423.6768
10/24/2014 3:19:19 PM	15:19:19	0	A	1	64	92.85714	47468.57	69	98.57143	34500	1252.452	85.96859	82.67993	14.20313	51.035	423.5317	51.08	85.43974	1.482	14.25553	1.950001	1	3	1	0.15	5941	157.7998	178.2716	64.98813	4.575622	217.5176	191.2998	1.133373	14.81769	419.5896
10/24/2014 3:19:29 PM	15:19:29	0	A	1	66	94.28571	48198.86	68	97.14286	34000	1258.109	86.5415	82.65424	14.20313	51.08501	425.963	51.86501	85.52789	1.514	14.25867	1.969999	1	3	1	0.15	5853	155	174.2935	66.01813	4.648141	218.8683	193.8433	1.139177	14.89357	421.7383
10/24/2014 3:19:39 PM	15:19:39	0	A	1	66	94.28571	48198.86	68	97.14286	34000	1262.394	86.49744	82.65424	14.20313	51.08501	428.8445	53.85001	85.74824	1.594999	14.25921	2.097	1	3	1	0.15	5833	163.2002	180.5839	67.08313	4.723125	220.4691	195.907	1.17658	15.38257	435.5853
10/24/2014 3:19:49 PM	15:19:49	0	A	1	66	92.85714	47468.57	69	98.57143	34500	1270.237	85.21939	82.66281	14.20275	51.105	429.835	52.94	85.92452	1.636999	14.25819	2.082001	1	3	1	0.15	5993	160.2002	181.4294	67.42776	4.747514	221.0195	195.4861	1.17049	15.30296	433.3307
10/24/2014 3:19:59 PM	15:19:59	0	A	1	66	95.71428	48929.14	70	98.57143	34500	1291.75	83.5447	82.68845	14.20275	51.095	430.8263	54.69501	85.96859	1.641001	14.2613	2.151001	1	3	1	0.15	5985	169.6001	191.2149	69.19775	4.872138	221.5702	197.4548	1.189974	15.55768	440.5439
10/24/2014 3:20:09 PM	15:20:09	0	A	1	66	94.28571	48198.86	69	98.57143	34500	1298.864	84.82275	82.68845	14.20275	51.095	434.8731	54.16499	86.01266	1.669001	14.2605	2.131001	1	3	1	0.15	5985	170.3999	190.9873	68.87775	4.849607	223.8184	197.9489	1.184105	15.48095	438.3711
10/24/2014 3:20:19 PM	15:20:19	0	A	1	68	97.14286	49659.43	70	98.57143	34500	1326.811	85.43974	82.68845	14.20238	51.17	438.3418	55.94	86.14487	1.761999	14.26352	2.219002	1	3	1	0.15	5959	181.3999	206.9494	69.99738	4.928568	225.7455	200.6248	1.208128	15.79504	447.265
10/24/2014 3:20:29 PM	15:20:29	0	A	1	67	95.71428	48929.14	69	98.57143	34500	1317.557	84.86683	82.67136	14.20275	51.28	443.3225	55.7	86.32115	1.648001	14.2614	2.202999	1	3	1	0.15	5976	184	208.2226	70.03776	4.931282	228.5125	200.2	1.203522	15.73482	445.5597
10/24/2014 3:20:39 PM	15:20:39	0	A	1	67	95.71428	48929.14	70	100	35000	1314.035	83.94134	82.67136	14.20275	51.28	445.1013	56.28	86.36523	1.629999	14.26202	2.207001	1	3	1	0.15	5976	183	206.857	70.14275	4.938674	229.5008	199.5941	1.204572	15.74854	445.9484
10/24/2014 3:20:49 PM	15:20:49	0	A	1	68	97.14286	49659.43	69	98.57143	34500	1344.324	84.1617	82.70557	14.20313	51.2	448.9703	56.815	86.32115	1.886	14.27179	2.258999	1	3	1	0.15	5928	192.6001	219.4171	71.64313	5.04418	231.6502	202.599	1.223613	15.99748	452.9975
10/24/2014 3:20:59 PM	15:20:59	0	A	1	68	95.71428	48929.14	69	98.57143	34500	1347.221	84.55833	82.67136	14.20238	-0.4400024	452.3501	57.05499	86.40929	1.757999	14.26378	2.271999	1	3	1	0.15	5927	185.7998	211.7065	71.21738	5.01447	233.5278	202.1575	1.222095	15.97764	452.4355
10/24/2014 3:21:09 PM	15:21:09	0	A	1	68	97.14286	49659.43	69	98.57143	34500	1347.567	85.3516	82.67136	14.20238	-0.4400024	454.2623	56.74001	86.58558	1.82	14.26461	2.252998	1	3	1	0.15	5921	192.2002	216.2267	71.36737	5.025031	234.5902	202.9003	1.216844	15.90899	450.4917
10/24/2014 3:21:19 PM	15:21:19	0	A	1	68	97.14286	49659.43	69	98.57143	34500	1344.064	85.13125	82.58585	14.20275	-0.4400024	456.4858	57.8	86.80593	1.791	14.26737	2.243999	1	3	1	0.15	5942	193	218.8039	71.58276	5.040063	235.8255	203.338	1.214315	15.87592	449.5552
10/24/2014 3:21:29 PM	15:21:29	0	A	1	68	97.14286	49659.43	69	98.57143	34500	1341.383	84.11762	82.526	14.20238	-0.4400024	457.0195	57.39999	86.93814	1.636	14.26201	2.230999	1	3	1	0.15	5930	190	214.7493	71.31738	5.021511	236.1219	201.9597	1.210428	15.82511	448.1164
10/24/2014 3:21:39 PM	15:21:39	0	A	1	68	97.14286	49659.43	69	98.57143	34500	1344.367	84.6024	82.526	14.20238	-0.4400024	457.9533	56.89	87.07035	1.763	14.26576	2.230999	1	3	1	0.15	5937	191.6001	211.159	72.07237	5.07467	236.6408	203.7903	1.210452	15.82542	448.1251
10/24/2014 3:21:49 PM	15:21:49	0	A	1	68	97.14286	49659.43	70	98.57143	34500	1347.48	84.47018	82.46616	14.20313	-0.4400024	458.3981	57.155	86.98222	1.792999	14.26395	2.249001	1	3	1	0.15	5987	194.2002	222.5132	71.66313	5.045589	236.8878	202.9062	1.215306	15.88888	449.9221
10/24/2014 3:21:59 PM	15:21:59	0	A	1	68	97.14286	49659.43	70	100	35000	1350.161	84.95496	82.43195	14.20238	-0.4400024	459.2875	56.765	87.20257	1.802999	14.271	2.249001	1	3	1	0.15	5991	192.3999	221.2928	72.17238	5.081712	237.3819	204.2849	1.213488	15.86511	449.2492
10/24/2014 3:22:09 PM	15:22:09	0	A	1	68	97.14286	49659.43	70	100	35000	1347.74	85.48381	82.43195	14.20238	-0.4400024	460.0435	57.55	87.1585	1.780001	14.26204	2.23	1	3	1	0.15	5998	194.3999	222.922	71.31738	5.021511	237.8019	203.1533	1.209911	15.81835	447.925
10/24/2014 3:22:19 PM	15:22:19	0	A	1	68	97.14286	49659.43	70	100	35000	1354.096	86.89407	82.33792	14.20238	-0.4400024	462.7117	57.465	87.29071	1.777	14.2684	2.223999	1	3	1	0.15	6004	192.7998	218.5724	72.11238	5.077487	239.2843	205.873	1.208431	15.79899	447.3768
10/24/2014 3:22:29 PM	15:22:29	0	A	1	68	97.14286	49659.43	70	100	35000	1352.107	86.14487	82.28659	14.202	-0.4400024	462.4004	57.595	87.37885	1.768999	14.26065	2.192001	1	3	1	0.15	6006	199.2002	223.6766	71.472	5.032531	239.1114	204.0242	1.199334	15.68006	444.0092
10/24/2014 3:22:39 PM	15:22:39	0	A	1	68	97.14286	49659.43	70	100	35000	1353.534	86.80593	82.28659	14.202	-0.4400024	463.9124	57.50999	87.29071	1.799999	14.26608	2.226002	1	3	1	0.15	6000	191.3999	219.3404	71.987	5.068793	239.9514	205.5656	1.208872	15.80476	447.5402
10/24/2014 3:22:49 PM	15:22:49	0	A	1	68	97.14286	49659.43	70	100	35000	1362.226	87.02628	82.22675	14.202	-0.4400024	465.0686	57.56	87.51106	1.726	14.26178	2.235001	1	3	1	0.15	5996	192	217.824	72.07199	5.074778	240.5937	205.9171	1.210861	15.83077	448.2768
10/24/2014 3:22:59 PM	15:22:59	0	A	1	68	97.14286	49659.43	70	100	35000	1358.421	87.81956	82.20111	14.20238	-0.4400024	468.5374	57.655	87.77548	1.794001	14.26757	2.185001	1	3	1	0.15	5992	190.2002	218.1355	71.16238	5.010597	242.5208	204.9021	1.196201	15.6391	442.8491
10/24/2014 3:23:09 PM	15:23:09	0	A	1	68	97.14286	49659.43	70	100	35000	1373.944	88.78911	82.20111	14.20238	-0.4400024	471.9616	57.3	87.5992	1.68	14.26013	2.194	1	3	1	0.15	5998	192.6001	221.3227	71.59738	5.041226	244.4231	206.5682	1.199617	15.68376	444.1138
10/24/2014 3:23:19 PM	15:23:19	0	A	1	68	97.14286	49659.43	70	100	35000	1370.398	89.14168	82.18399	14.202	-0.4400024	473.7849	57.53999	87.81956	1.681999	14.2612	2.207001	1	3	1	0.15	5992	187.7998	215.1691	72.03701	5.072314	245.4361	207.7053	1.202937	15.72717	445.3432
10/24/2014 3:23:29 PM	15:23:29	0	A	1	68	98.57143	50389.71	70	100	35000	1372.95	89.00946	82.15836	14.20238	-0.4400024	476.6755	56.845	87.68735	1.754999	14.26323	2.173	1	3	1	0.15	5993	195	222.2793	71.87738	5.060941	247.0419	207.2868	1.196373	15.64135	442.9131
10/24/2014 3:23:39 PM	15:23:39	0	A	1	69	97.14286	49659.43	70	100	35000	1370.485	89.4061	82.15836	14.20238	-0.4400024	479.0324	56.785	87.73141	1.702	14.2667	2.159	1	3	1	0.15	5996	194.2002	219.1942	71.83737	5.058124	248.3514	207.559	1.195658	15.63201	442.6484
10/24/2014 3:23:49 PM	15:23:49	0	A	1	68	97.14286	49659.43	70	100	35000	1368.193	90.46379	82.15836	14.20238	-0.4400024	480.4555	57.14999	87.81956	1.642	14.26417	2.153999	1	3	1	0.15	5997	195.7998	224.2547	71.21738	5.01447	249.1419	207.3151	1.187533	15.52577	439.6402
10/24/2014 3:23:59 PM	15:23:59	9	A	1	68	97.14286	49659.43	70	100	35000	1371.22	90.64008	82.15836	14.20163	-0.4400024	481.6117	56.98	87.64327	1.646	14.26122	2.160999	1	3	1	0.15	5996	197.2002	223.9893	71.59663	5.041439	249.7843	208.1929	1.187855	15.52999	439.7596
10/24/2014 3:24:09 PM	15:24:09	19	A	1	68	97.14286	49659.43	70	100	35000	1361.102	89.75867	82.15836	14.20163	-0.4400024	481.923	57.105	87.68735	1.655001	14.26357	2.173	1	3	1	0.15	5999	195	224.5582	72.01663	5.071013	249.9572	208.2113	1.193947	15.60963	442.0147
10/24/2014 3:24:19 PM	15:24:19	29	A	1	68	97.14286	49659.43	70	100	35000	1357.037	87.95177	82.14124	14.20125	-0.4400024	480.6334	57.87	87.86362	1.731001	14.25781	2.147999	1	3	1	0.15	5992	191.6001	223.6115	71.61125	5.042602	249.2408	205.8725	1.186662	15.51439	439.318
10/24/2014 3:24:29 PM	15:24:29	39	A	1	68	97.14286	49659.43	70	100	35000	1363.22	88.74504	82.14124	14.20125	-0.4400024	482.1898	57.27	87.81956	1.566	14.26215	2.165001	1	3	1	0.15	5992	191	217.4509	71.99124	5.069359	250.1055	207.5109	1.191558	15.57839	441.1302
10/24/2014 3:24:39 PM	15:24:39	49	A	1	69	98.57143	50389.71	69	100	35000	1362.269	86.89407	82.14124	14.202	-0.4400024	481.167	57.00999	87.73141	1.752001	14.26228	2.122002	1	3	1	0.15	5993	192	217.2587	71.65701	5.045557	249.5372	205.0259	1.17982	15.42493	436.7847
10/24/2014 3:24:49 PM	15:24:49	59	A	1	68	97.14286	49659.43	70	100	35000	1359.458	87.33478	82.15836	14.20238	-0.4400024	480.8557	57.17999	87.68735	1.627001	14.26255	2.182999	1	3	1	0.15	6003	195.3999	224.4791	71.35237	5.023974	249.3643	204.8362	1.194168	15.61252	442.0967
10/24/2014 3:24:59 PM	15:24:59	69	A	1	69	98.57143	50389.71	70	100	35000	1349.642	85.96859	82.15836	14.20163	-0.4400024	478.4098	57.285	87.9077	1.704	14.2644	2.188999	1	3	1	0.15	5991	192.2002	215.5894	71.59663	5.041439	248.0055	204.1069	1.194274	15.61391	442.136
10/24/2014 3:25:09 PM	15:25:09	79	A	1	24	34.28572	17526.86	29	41.42857	14500	763.2438	89.53831	82.15836	14.20163	-0.4400024	474.3185	2.544998	87.81956	-0.2439995	14.19071	1.499939E-02	0	3	1	0.15	2461	191.7998	90.05994	16.82162	1.184486	245.7325	46.80968	9.918273E-02	1.296712	36.71875
10/24/2014 3:25:19 PM	15:25:19	89	A	1	5	7.142858	3651.429	3	8.571429	3000	578.9517	87.95177	82.14124	14.20163	-0.4400024	451.2828	5.004883E-03	87.73141	-0.25	14.19209	1.799965E-02	0	3	1	0.15	323	3.600098	0.2336845	14.21162	1.000704	232.9349	31.14436	0.1023752	1.33845	37.90063
10/24/2014 3:25:29 PM	15:25:29	99	A	1	0	0	0	0	0	0	638.9944	87.02628	82.14981	14.20163	-0.4400024	437.8971	-0.1950073	87.81956	-0.2029991	14.19313	1.399994E-02	0	3	1	0.15	181	0.3999023	2.756314E-02	14.01162	0.9866211	225.4984	29.42452	9.591255E-02	1.253958	35.50808
10/24/2014 3:25:39 PM	15:25:39	109	A	1	0	0	0	0	0	0	764.1396	85.61603	82.14981	14.20163	-0.4400024	429.7899	-0.2050018	87.99583	-0.2700005	14.19125	0.0170002	0	3	1	0.15	93	-0.3999023	0	14.00163	0.9859173	220.9944	28.58356	0.1056802	1.38166	39.1242
10/24/2014 3:25:49 PM	15:25:49	119	A	1	-1	0	0	0	0	0	842.9014	84.9109	82.14981	14.20125	-0.4400024	422.4062	-0.2050018	88.03991	-0.2549992	14.19348	1.499939E-02	0	3	1	0.15	-1	-0.3999023	3.811712E-05	13.99625	0.9855645	216.8923	28.16317	9.917324E-02	1.296588	36.71523
10/24/2014 3:25:59 PM	15:25:59	129	A	1	-1	0	0	0	0	0	875.7775	84.82275	82.14981	14.20125	-0.4400024	415.6526	-0.2149963	88.17212	-0.2259998	14.19221	9.000778E-03	0	3	1	0.15	-2	-0.6000977	2.285168E-04	13.98625	0.9848607	213.1404	28.05401	8.878297E-02	1.160746	32.86862
10/24/2014 3:27:03 PM	15:27:03	0	A	1	0	0	0	0	0	0	883.1492	84.73461	82.2182	14.20125	-0.4400024	380.0392	-0.2700043	88.74504	-0.25	14.19258	9.000778E-03	0	3	1	0.15	-2	-1.200195	4.570336E-04	13.93125	0.9809873	193.3551	27.67244	7.684495E-02	1.004669	28.449
10/24/2014 3:27:13 PM	15:27:13	0	A	1	0	0	0	0	0	0	877.9382	84.86683	82.22675	14.20163	-0.4400024	374.9065	-0.2649994	88.87725	-0.2320004	14.19284	7.99942E-03	0	3	1	0.15	-2	-1.200195	4.570336E-04	13.93663	0.9813402	190.5036	27.7759	7.244832E-02	0.9471875	26.82132
10/24/2014 3:27:23 PM	15:27:23	0	A	1	-1	0	0	0	0	0	873.4473	84.64647	82.22675	14.20163	-0.4400024	370.8094	-0.2599945	88.83318	-0.2329998	14.1931	6.999969E-03	0	3	1	0.15	-2	-1.200195	4.570336E-04	13.93663	0.9813402	188.2274	27.6541	6.790195E-02	0.8877483	25.13819
10/24/2014 3:27:33 PM	15:27:33	0	A	1	0	0	0	0	0	0	867.8126	84.38205	82.22675	14.202	-0.4400024	366.8023	-0.2649994	88.74504	-0.2409992	14.19362	9.000778E-03	0	3	1	0.15	-2	-1.200195	4.570336E-04	13.937	0.9813407	186.0013	27.50802	7.684776E-02	1.004706	28.45005
10/24/2014 3:27:43 PM	15:27:43	0	A	1	0	0	0	0	0	0	862.0085	84.69054	82.24384	14.20163	-0.4400024	362.0298	-0.2649994	88.83318	-0.2509995	14.19313	7.99942E-03	0	3	1	0.15	-2	-1.200195	4.570336E-04	13.93663	0.9813402	183.3499	27.67844	7.245188E-02	0.947234	26.82263
10/24/2014 3:27:53 PM	15:27:53	0	A	1	-1	0	0	0	0	0	852.8998	84.51426	82.24384	14.20163	-0.4400024	358.0677	-0.2649994	88.92133	-0.2369995	14.1931	6.000519E-03	0	3	1	0.15	-2	-1.200195	3.807993E-04	13.93162	0.9809878	181.1488	27.55071	6.259272E-02	0.8183355	23.17264
10/24/2014 3:28:03 PM	15:28:03	0	A	1	-1	0	0	0	0	0	848.1125	84.73461	82.24384	14.20125	-0.4400024	353.1602	-0.2449951	89.14168	-0.2250004	14.19301	6.999969E-03	0	3	1	0.15	-2	-1.200195	4.570336E-04	13.95625	0.9827483	179.0227	27.82388	6.788341E-02	0.8875059	25.13133
10/24/2014 3:28:13 PM	15:28:13	0	A	1	-1	0	0	0	0	0	842.5201	84.69054	82.27805	14.20125	-0.4400024	349.4683	-0.2449951	88.96539	-0.2520008	14.192	6.000519E-03	0	3	1	0.15	-2	-1.200195	4.570336E-04	13.95625	0.9827483	176.3713	27.7995	6.258788E-02	0.8182723	23.17085
10/24/2014 3:28:23 PM	15:28:23	0	A	1	0	0	0	0	0	0	836.5465	84.55833	82.27805	14.20125	-0.4400024	345.5963	-0.2550049	89.14168	-0.2390003	14.19221	7.99942E-03	0	3	1	0.15	-1	-1.399902	2.285168E-04	13.95125	0.9823959	174.2202	27.69611	7.242997E-02	0.9469475	26.81452
10/24/2014 3:28:33 PM	15:28:33	0	A	1	0	0	0	0	0	0	829.3019	84.77868	82.29517	14.20125	-0.4400024	341.0039	-0.2550049	89.14168	-0.2479992	14.19203	6.000519E-03	0	3	1	0.15	-2	-1.200195	4.570336E-04	13.94625	0.9820435	171.6689	27.78763	6.257828E-02	0.8181468	23.1673
10/24/2014 3:28:43 PM	15:28:43	0	A	1	-1	0	0	0	0	0	822.8623	84.6024	82.32935	14.20163	-0.4400024	337.4021	-0.2599945	89.05354	-0.2310009	14.19266	1.099968E-02	0	3	1	0.15	-2	-1.600098	6.093162E-04	13.93663	0.9813402	169.6678	27.62972	8.472674E-02	1.107715	31.36695
10/24/2014 3:28:53 PM	15:28:53	0	A	1	0	0	0	0	0	0	815.4906	84.38205	82.32935	14.20163	-0.4400024	332.8795	-0.2649994	89.0976	-0.2269993	14.19288	1.099968E-02	0	3	1	0.15	-2	-1.200195	5.330819E-04	13.93663	0.9813402	167.6777	27.50795	8.472411E-02	1.107681	31.36597
10/24/2014 3:29:03 PM	15:29:03	0	A	1	0	0	0	0	0	0	807.0598	84.69054	82.36356	14.20125	-0.4400024	329.611	-0.2700043	89.18575	-0.2329998	14.19276	9.000778E-03	0	3	1	0.15	-2	-1.200195	4.570336E-04	13.93125	0.9809873	165.3394	27.6481	7.681579E-02	1.004288	28.43821
10/24/2014 3:29:13 PM	15:29:13	0	A	1	-1	0	0	0	0	0	802.6961	84.9109	82.38065	14.20125	-0.4400024	326.0291	-0.2700043	89.0976	-0.2380009	14.19269	1.000023E-02	0	3	1	0.15	-2	-1.200195	4.570336E-04	13.93125	0.9809873	163.3495	27.76986	8.086904E-02	1.05728	29.93878
10/24/2014 3:29:23 PM	15:29:23	0	A	1	0	0	0	0	0	0	794.724	84.86683	82.38065	14.20125	-0.4400024	321.6412	-0.2649994	89.14168	-0.2339993	14.19265	6.999969E-03	0	3	1	0.15	-2	-1.200195	4.570336E-04	13.93625	0.9813397	160.9118	27.77586	6.257964E-02	0.8181645	23.1678
10/24/2014 3:29:33 PM	15:29:33	0	A	1	0	0	0	0	0	0	792.2499	84.82275	82.40631	14.20163	-0.4400024	318.3726	-0.2599945	89.0976	-0.2479992	14.19263	1.000023E-02	0	3	1	0.15	-2	-1.200195	5.330819E-04	13.94662	0.982044	159.0959	27.81204	8.086888E-02	1.057278	29.93872
10/24/2014 3:57:03 PM	15:57:03	0	A	2	0	0	0	0	0	0	272.3672	82.83958	80.39703	14.20125	53.395	94.78271	-0.2400055	84.86683	-0.3209991	14.18969	4.000092E-02	0	3	1	0.15	-2	0.3999023	-2.285168E-04	13.96124	0.9830997	34.87929	26.80629	0.1624809	2.12427	60.15254
10/24/2014 3:57:13 PM	15:57:13	0	A	2	0	0	0	0	0	0	267.1632	82.61922	80.39703	14.20125	53.395	94.73865	-0.2400055	84.82275	-0.3180008	14.19037	4.199982E-02	0	3	1	0.15	-2	0.3999023	-1.522825E-04	13.96625	0.9834521	34.8548	26.71463	0.1665623	2.17763	61.66352
10/24/2014 3:57:23 PM	15:57:23	0	A	2	0	0	0	0	0	0	264.7376	82.70737	80.40561	14.20087	53.44	94.56236	-0.2350006	84.77868	-0.3139992	14.19029	0.0359993	0	3	1	0.15	-2	0.6000977	-1.522825E-04	13.96587	0.9834517	34.75687	26.76329	0.1540984	2.014678	57.04924
10/24/2014 3:57:33 PM	15:57:33	0	A	2	0	0	0	0	0	0	261.871	82.70737	80.35431	14.20125	53.45	94.29794	-0.2350006	84.77868	-0.316	14.19008	4.000092E-02	0	3	1	0.15	-2	0.6000977	-2.285168E-04	13.96625	0.9834521	34.60997	26.76336	0.1624958	2.124466	60.15807
10/24/2014 3:57:43 PM	15:57:43	0	A	2	0	0	0	0	0	0	260.548	82.61922	80.35431	14.20125	53.45	94.16573	-0.2350006	84.9109	-0.3180008	14.18932	4.000092E-02	0	3	1	0.15	-2	0.6000977	-1.522825E-04	13.97125	0.9838045	34.53651	26.74474	0.1624725	2.124161	60.14944
10/24/2014 3:57:53 PM	15:57:53	0	A	2	0	0	0	0	0	0	263.591	82.75143	80.32864	14.20125	53.455	93.81316	-0.2350006	84.73461	-0.3759995	14.18965	4.000092E-02	0	3	1	0.15	-2	0.3999023	-2.285168E-04	13.96625	0.9834521	34.34065	26.7877	0.1684897	2.20283	62.37709
10/24/2014 3:58:03 PM	15:58:03	0	A	2	17	25.71429	13145.14	20	25.71429	9000.001	522.9756	82.39887	80.32864	14.20163	53.455	93.54874	2.440002	84.69054	-0.316	14.18937	4.400063E-02	0	3	1	0.15	30	1.399902	7.996229E-03	16.56663	1.166531	34.19374	41.29987	0.1703955	2.227746	63.08264
10/24/2014 3:58:13 PM	15:58:13	0	A	2	39	55.71429	28481.14	39	57.14286	20000	1144.313	82.31072	80.32864	14.20163	53.455	92.75546	14.86501	84.69054	-0.3239994	14.18956	4.100037E-02	0	3	1	0.15	1071	16.7998	3.344236	28.77163	2.025939	33.75304	93.91522	0.1703966	2.22776	63.08303
10/24/2014 3:58:23 PM	15:58:23	0	A	2	42	60	30672	29	37.14286	13000	979.8194	82.3548	80.2688	14.20125	53.495	91.52148	16.395	84.77868	-0.3279991	14.18969	3.800011E-02	0	3	1	0.15	2098	34.7998	13.90108	30.61624	2.155884	33.06749	100.4043	0.1583864	2.07074	58.63673
10/24/2014 3:58:33 PM	15:58:33	0	A	2	42	60	30672	27	38.57143	13500	977.9604	82.57515	80.2688	14.20125	53.56	91.213	16.16	84.73461	-0.3729992	14.18947	4.299927E-02	0	3	1	0.15	2315	40.2002	17.71925	30.59125	2.154124	32.89611	100.4706	0.1684886	2.202816	62.37669
10/24/2014 3:58:43 PM	15:58:43	0	A	2	42	60	30672	28	40	14000	978.8899	82.75143	80.2688	14.20125	53.56	91.47741	17.08501	84.73461	-0.323	14.18911	3.899956E-02	0	3	1	0.15	2366	41.3999	18.5601	31.17125	2.194965	33.04301	102.5668	0.1604541	2.097773	59.40223
10/24/2014 3:58:53 PM	15:58:53	0	A	2	46	65.71429	33593.14	33	47.14286	16500	989.1569	83.05993	80.22604	14.20163	53.715	91.82998	20.63	84.55833	0.0909996	14.20502	0.6200008	1	3	1	0.15	2775	49.2002	25.99537	34.73162	2.445609	33.23888	114.3602	0.6396453	8.362705	236.805
10/24/2014 3:59:03 PM	15:59:03	0	A	2	50	72.85714	37244.57	40	57.14286	20000	1036.14	83.28028	80.20895	14.20125	53.795	170.5608	26.75999	84.69054	0.5580006	14.22395	1.004999	1	3	1	0.15	3516	57.2002	38.42609	40.77126	2.870962	76.9782	132.3575	0.8143663	10.647	301.489
10/24/2014 3:59:13 PM	15:59:13	0	A	2	53	74.28571	37974.86	47	67.14285	23500	1052.153	84.29391	80.20895	14.20125	53.795	205.0785	29.015	84.77868	0.6009998	14.22597	1.131001	1	3	1	0.15	4037	61	46.88725	43.20625	3.042426	96.15475	139.7808	0.8637531	11.29269	319.7727
10/24/2014 3:59:23 PM	15:59:23	0	A	2	54	75.71429	38705.14	53	75.71429	26500	1072.265	84.20576	80.17477	14.2005	53.91	225.6848	31.49001	84.77868	0.7140007	14.22905	1.214001	1	3	1	0.15	4542	63.2002	55.00107	45.2805	3.188656	107.6027	145.1879	0.8948774	11.6996	331.2953
10/24/2014 3:59:33 PM	15:59:33	0	A	2	56	80	40896	61	87.14285	30500	1082.025	84.38205	80.13199	14.20125	54.00999	245.5976	34.38499	84.86683	0.8770008	14.23493	1.382999	1	3	1	0.15	5242	65.2002	64.87488	49.04625	3.453657	118.6653	154.8028	0.9550303	12.48604	353.5647
10/24/2014 3:59:43 PM	15:59:43	0	A	2	56	81.42857	41626.28	68	98.57143	34500	1067.575	84.20576	80.13199	14.20125	54.00999	263.4587	33.345	84.99904	0.8729992	14.23049	1.301001	1	3	1	0.15	5842	62.3999	69.40834	48.10124	3.387113	128.5882	152.3352	0.9261302	12.1082	342.8655
10/24/2014 3:59:53 PM	15:59:53	0	A	2	56	80	40896	67	95.71428	33500	1058.406	84.82275	80.13199	14.20087	54.06	269.8093	34.11501	85.39568	0.8579998	14.23112	1.299999	1	3	1	0.15	5726	64.7998	69.33864	48.00088	3.380135	132.1163	152.2958	0.9254693	12.09956	342.6208
10/24/2014 4:00:03 PM	16:00:03	0	A	2	57	81.42857	41626.28	66	95.71428	33500	1045.604	85.26346	80.11487	14.2005	54.045	277.7035	36.265	85.48381	0.9190006	14.23306	1.426001	1	3	1	0.15	5694	69.6001	76.54009	50.2805	3.540756	136.502	158.5022	0.965711	12.62568	357.5189
10/24/2014 4:00:13 PM	16:00:13	0	A	2	58	82.85715	42356.57	66	94.28571	33000	1069.223	85.61603	80.11487	14.2005	54.045	288.2394	37.25999	85.74824	0.9669991	14.23255	1.466999	1	3	1	0.15	5691	81.3999	87.98566	51.7905	3.64709	142.3553	162.3822	0.9826083	12.84659	363.7744
10/24/2014 4:00:23 PM	16:00:23	0	A	2	58	82.85715	42356.57	66	94.28571	33000	1078.053	85.48381	80.08072	14.20125	53.99001	299.2539	39.02	86.01266	1.083	14.24339	1.551001	1	3	1	0.15	5651	87.6001	93.82293	52.90125	3.725112	148.4744	164.8703	1.010378	13.20965	374.055
10/24/2014 4:00:33 PM	16:00:33	0	A	2	58	82.85715	42356.57	66	94.28571	33000	1081.264	86.1008	80.10635	14.20163	53.965	313.9847	38.83501	86.23302	1.07	14.2382	1.566	1	3	1	0.15	5640	94	98.36515	53.65663	3.778203	156.6582	167.1107	1.014848	13.26809	375.7099
10/24/2014 4:00:43 PM	16:00:43	0	A	2	58	82.85715	42356.57	65	92.85714	32500	1081.011	85.83637	80.10635	14.20163	53.965	320.5666	39.035	86.23302	1.007999	14.24174	1.524	1	3	1	0.15	5633	90	95.88329	53.09663	3.738771	160.3148	165.604	1.001323	13.09126	370.7027
10/24/2014 4:00:53 PM	16:00:53	0	A	2	59	82.85715	42356.57	63	90	31500	1091.954	85.88045	80.07217	14.20087	54.06	328.3573	39.45	86.36523	1	14.24023	1.540001	1	3	1	0.15	5430	100.3999	105.2478	53.85087	3.792081	164.643	167.3859	1.006387	13.15748	372.5777
10/24/2014 4:01:03 PM	16:01:03	0	A	2	59	84.28571	43086.86	59	84.28571	29500	1105.77	87.46699	80.0636	14.20125	54.12	334.1332	39.47501	86.49744	1.011999	14.23761	1.511	1	3	1	0.15	5087	113	109.6415	53.26625	3.750814	167.8518	167.3127	0.9953693	13.01343	368.4987
10/24/2014 4:01:13 PM	16:01:13	0	A	2	59	84.28571	43086.86	57	81.42857	28500	1102.601	88.17212	80.0636	14.20125	54.12	338.7077	39.41	86.49744	0.9799995	14.23804	1.514999	1	3	1	0.15	4939	113.7998	106.6395	53.31125	3.753983	170.3932	167.9849	0.9980121	13.04798	369.4771
10/24/2014 4:01:23 PM	16:01:23	0	A	2	61	87.14285	44547.43	63	91.42857	32000	1142.825	89.18575	80.05505	14.20125	54.16499	350.864	43.565	86.49744	1.263	14.24639	1.746	1	3	1	0.15	5427	110.2002	116.7628	58.58125	4.125077	177.1467	180.6463	1.071363	14.00697	396.6327
10/24/2014 4:01:33 PM	16:01:33	0	A	2	61	87.14285	44547.43	66	94.28571	33000	1127.825	88.30433	80.03796	14.20087	54.215	359.9137	42.77	86.62965	1.201	14.24486	1.663	1	3	1	0.15	5662	110.7998	119.6628	56.87087	4.004745	182.1743	176.1697	1.044601	13.65708	386.7249
10/24/2014 4:01:43 PM	16:01:43	0	A	2	61	87.14285	44547.43	65	92.85714	32500	1150.095	90.37565	80.03796	14.20087	54.215	365.5867	44.10001	86.49744	1.211	14.2424	1.677	1	3	1	0.15	5595	121.2002	129.3257	58.32587	4.107203	185.3259	181.0763	1.049304	13.71857	388.466
10/24/2014 4:01:53 PM	16:01:53	0	A	2	62	88.57143	45277.71	61	87.14285	30500	1158.725	89.4061	80.04648	14.20087	54.295	373.5558	45.005	86.49744	1.245001	14.24431	1.73	1	3	1	0.15	5268	145.2002	146.2409	59.44587	4.186071	189.7532	182.7019	1.066397	13.94205	394.7941
10/24/2014 4:02:03 PM	16:02:03	0	A	2	62	88.57143	45277.71	58	82.85715	29000	1164.549	89.4061	80.01233	14.20125	54.38499	378.8686	45.83	86.5415	1.341	14.24697	1.767	1	3	1	0.15	4991	142.7998	136.081	59.87125	4.215914	192.7048	183.6114	1.077748	14.09044	398.9963
10/24/2014 4:02:13 PM	16:02:13	0	A	2	64	91.42857	46738.29	64	91.42857	32000	1222.708	88.39248	80.01233	14.20125	54.38499	388.0533	49.58	86.5415	1.474001	14.25289	1.979	1	3	1	0.15	5441	138.2002	146.071	63.55125	4.475047	196.4567	190.4628	1.140469	14.91046	422.2166
10/24/2014 4:02:23 PM	16:02:23	0	A	2	64	91.42857	46738.29	66	94.28571	33000	1210.039	89.18575	80.00375	14.20163	54.38	397.9585	48.61	86.58558	1.405001	14.25107	1.879	1	3	1	0.15	5674	139.2002	149.7335	62.79162	4.421439	203.3103	189.5666	1.111316	14.52932	411.4238
10/24/2014 4:02:33 PM	16:02:33	0	A	2	64	91.42857	46738.29	66	94.28571	33000	1229	90.24344	80.01233	14.20087	54.37	402.1456	50.07001	86.71779	1.500999	14.25602	1.955999	1	3	1	0.15	5650	152.6001	163.085	64.15087	4.517389	205.6365	193.2593	1.133799	14.82326	419.7472
10/24/2014 4:02:43 PM	16:02:43	0	A	2	65	92.85714	47468.57	65	92.85714	32500	1260.723	90.64008	80.01233	14.20087	54.37	412.7261	51.3	86.76186	1.513	14.2514	1.969	1	3	1	0.15	5533	171.6001	180.1453	64.37588	4.533233	211.5145	194.0545	1.137313	14.86921	421.0483
10/24/2014 4:02:53 PM	16:02:53	0	A	2	65	92.85714	47468.57	61	87.14285	30500	1262.394	90.24344	80.02939	14.20087	54.46001	418.8493	50.92	86.67372	1.511999	14.25519	2.040001	1	3	1	0.15	5283	181.6001	183.4727	66.09588	4.654353	214.9163	197.1845	1.157475	15.1328	428.5125
10/24/2014 4:03:03 PM	16:03:03	0	A	2	66	94.28571	48198.86	60	85.71429	30000	1287.122	87.5992	80.03796	14.20087	54.42	422.4962	53.91	86.80593	1.615	14.26022	2.139	1	3	1	0.15	5178	181.6001	178.8403	67.48588	4.752234	216.9423	197.6641	1.18488	15.49109	438.658
10/24/2014 4:03:13 PM	16:03:13	5	B	2	67	95.71428	48929.14	63	90	31500	1307.049	87.07035	80.03796	14.20087	54.42	427.809	54.16499	86.85	1.573	14.26076	2.161999	1	3	1	0.15	5405	182	186.4749	68.23087	4.804695	219.8939	198.6603	1.189252	15.54825	440.2768
10/24/2014 4:03:23 PM	16:03:23	15	B	2	67	95.71428	48929.14	65	92.85714	32500	1341.124	88.12805	80.05505	14.20087	54.46001	437.0966	53.94	86.89407	1.587	14.26148	2.116001	1	3	1	0.15	5626	182.7998	194.0996	68.39088	4.815962	225.0537	199.8838	1.182365	15.45821	437.7269
10/24/2014 4:03:33 PM	16:03:33	25	B	2	67	95.71428	48929.14	66	94.28571	33000	1330.357	90.59601	80.03796	14.20087	54.61	442.9668	54.075	86.89407	1.612	14.25801	2.146	1	3	1	0.15	5659	180	194.5915	68.74587	4.840961	228.3149	202.7056	1.187178	15.52113	439.5088
10/24/2014 4:03:43 PM	16:03:43	35	B	2	67	95.71428	48929.14	66	92.85714	32500	1339.265	89.0976	80.03796	14.20087	54.61	447.6806	55.465	86.80593	1.617001	14.26271	2.216999	1	3	1	0.15	5642	193.6001	205.8235	69.76087	4.912435	230.2666	203.3654	1.208174	15.79564	447.282
10/24/2014 4:03:53 PM	16:03:53	45	B	2	67	95.71428	48929.14	65	92.85714	32500	1355.134	89.14168	80.02939	14.20125	54.735	451.3272	55.595	86.98222	1.735001	14.26106	2.164001	1	3	1	0.15	5619	193.7998	208.8361	69.57124	4.898952	232.9596	203.0364	1.192146	15.58608	441.3479
10/24/2014 4:04:03 PM	16:04:03	55	B	2	68	97.14286	49659.43	64	92.85714	32500	1365.512	89.45017	80.04648	14.20163	54.78	457.2863	56.94	87.07035	1.785999	14.26321	2.243	1	3	1	0.15	5545	203.3999	214.7427	70.85162	4.98898	236.2702	205.7446	1.213297	15.86261	449.1784
10/24/2014 4:04:13 PM	16:04:13	65	B	2	68	97.14286	49659.43	66	92.85714	32500	1388.344	90.02309	80.04648	14.20163	54.78	461.5999	57.69501	87.11443	1.830999	14.26838	2.317001	1	3	1	0.15	5620	201.3999	215.5072	71.77663	5.054113	238.6666	207.9921	1.236123	16.16104	457.6289
10/24/2014 4:04:23 PM	16:04:23	75	B	2	8	11.42857	5842.286	8	10	3500	576.1747	90.28751	80.05505	14.20087	54.88	433.3167	0.1199951	86.98222	-0.2619991	14.19057	0.0340004	0	3	1	0.15	-1	5.399902	-9.901155E-04	14.32087	1.00845	222.9537	33.10413	0.1495792	1.955595	55.37619
10/24/2014 4:04:33 PM	16:04:33	85	B	2	0	0	0	0	0	0	619.2178	90.68414	80.03796	14.20087	54.955	414.3019	-0.2100067	87.11443	-0.3139992	14.19021	3.100014E-02	0	3	1	0.15	-2	0.6000977	-2.285168E-04	13.99087	0.9852117	212.39	31.32685	0.1427479	1.866283	52.84715
10/24/2014 4:04:43 PM	16:04:43	95	B	2	0	0	0	0	0	0	709.0705	90.46379	80.03796	14.20087	54.955	403.9016	-0.2550049	87.11443	-0.2940006	14.19094	3.100014E-02	0	3	1	0.15	-2	0.3999023	-1.522825E-04	13.94088	0.9816917	206.612	30.89944	0.1427515	1.86633	52.84849
10/24/2014 4:04:53 PM	16:04:53	105	B	2	0	0	0	0	0	0	804.6449	89.89088	80.02939	14.20087	55	394.8068	-0.2749939	87.07035	-0.2950001	14.19018	2.899933E-02	0	3	1	0.15	-2	0.3999023	-1.522825E-04	13.92588	0.9806354	201.5594	30.49108	0.1381347	1.805969	51.13926
10/24/2014 4:05:03 PM	16:05:03	115	B	2	0	0	0	0	0	0	848.1548	88.92133	80.07217	14.20087	54.94501	385.3519	-0.2749939	87.07035	-0.2759991	14.19054	3.700066E-02	0	3	1	0.15	-2	0.6000977	-1.522825E-04	13.92588	0.9806354	196.3066	29.95536	0.1558609	2.037722	57.70176
10/24/2014 4:05:13 PM	16:05:13	125	B	2	0	0	0	0	0	0	859.17	88.52469	80.07217	14.20087	54.94501	380.1292	-0.2649994	87.24664	-0.2420006	14.1917	2.799988E-02	0	3	1	0.15	-2	0.6000977	-1.522825E-04	13.94088	0.9816917	193.4051	29.82773	0.1355853	1.772638	50.19544
10/24/2014 4:05:24 PM	16:05:24	0	B	2	0	0	0	0	0	0	863.11	87.24664	80.08072	14.20012	54.895	369.5487	-0.2649994	87.07035	-0.2779999	14.18986	3.300095E-02	0	3	1	0.15	-2	0.2001953	-1.522825E-04	13.94013	0.9816907	187.5271	29.12128	0.1472253	1.92482	54.50473
10/24/2014 4:05:34 PM	16:05:34	0	B	2	0	0	0	0	0	0	866.2028	87.24664	80.09781	14.2005	54.91499	365.5417	-0.2550049	87.11443	-0.2830009	14.19013	2.899933E-02	0	3	1	0.15	-2	0.2001953	-7.623425E-05	13.94549	0.9820426	185.3009	29.1517	0.1381291	1.805896	51.13719
10/24/2014 4:05:44 PM	16:05:44	0	B	2	0	0	0	0	0	0	864.5928	87.07035	80.10635	14.20087	54.965	359.1033	-0.2700043	87.29071	-0.2609997	14.19159	2.700043E-02	0	3	1	0.15	-2	0.3999023	-2.285168E-04	13.93087	0.9809868	181.7241	28.96306	0.1331977	1.741424	49.31154
10/24/2014 4:05:54 PM	16:05:54	0	B	2	0	0	0	0	0	0	848.7479	86.58558	80.10635	14.20087	54.965	354.4659	-0.2700043	87.37885	-0.2579994	14.19285	2.899933E-02	0	3	1	0.15	-2	0.2001953	-7.623425E-05	13.93087	0.9809868	179.1477	28.69522	0.1282325	1.676509	47.47337
10/24/2014 4:06:04 PM	16:06:04	0	B	2	0	0	0	0	0	0	840.5713	86.36523	80.11487	14.20087	54.92999	349.1081	-0.2649994	87.29071	-0.2520008	14.19213	2.599907E-02	0	3	1	0.15	-2	0.3999023	-7.623425E-05	13.93587	0.9813392	176.1712	28.60384	0.140475	1.836567	52.0057
10/24/2014 4:06:14 PM	16:06:14	0	B	2	0	0	0	0	0	0	835.2332	85.74824	80.14056	14.2005	54.91499	344.6958	-0.2550049	87.33478	-0.2590008	14.19242	2.499962E-02	0	3	1	0.15	-2	0.3999023	-1.522825E-04	13.94587	0.982043	173.7199	28.32352	0.1282356	1.676548	47.47449
10/24/2014 4:06:24 PM	16:06:24	0	B	2	0	0	0	0	0	0	837.182	85.57195	80.14056	14.2005	54.91499	340.5537	-0.2449951	87.24664	-0.25	14.19179	2.000046E-02	0	3	1	0.15	-2	0.2001953	-7.623425E-05	13.9505	0.982395	171.4187	28.25638	0.1147135	1.499762	42.46845
10/24/2014 4:06:34 PM	16:06:34	0	B	2	0	0	0	0	0	0	835.1484	85.52789	80.14056	14.20087	54.87	335.5212	-0.25	87.33478	-0.2679996	14.19206	2.799988E-02	0	3	1	0.15	-2	0.2001953	-7.623425E-05	13.95588	0.9827479	168.6229	28.26238	0.1381117	1.805669	51.13077
10/24/2014 4:06:44 PM	16:06:44	0	B	2	0	0	0	0	0	0	828.8359	85.48381	80.17477	14.20087	54.85001	331.5363	-0.2599945	87.37885	-0.2759991	14.19036	2.000046E-02	0	3	1	0.15	-2	0.2001953	-1.522825E-04	13.94088	0.9816917	166.4091	28.14709	0.1146944	1.499512	42.46137
10/24/2014 4:06:54 PM	16:06:54	0	B	2	0	0	0	0	0	0	823.1589	85.6601	80.17477	14.20087	54.85001	327.0141	-0.2649994	87.29071	-0.2730007	14.19137	2.599907E-02	0	3	1	0.15	-2	0.3999023	-7.623425E-05	13.94088	0.9816917	163.8967	28.24451	0.130708	1.708873	48.38981
10/24/2014 4:07:04 PM	16:07:04	0	B	2	0	0	0	0	0	0	817.27	85.30753	80.19183	14.20125	54.83501	323.3874	-0.2649994	87.42292	-0.2800007	14.19153	2.899933E-02	0	3	1	0.15	-2	0.2001953	-7.623425E-05	13.93125	0.9809873	161.8819	27.98901	0.1380984	1.805495	51.12585
10/24/2014 4:07:14 PM	16:07:14	0	B	2	-1	0	0	0	0	0	810.322	86.18894	80.20041	14.20125	54.72501	320.1636	-0.2700043	87.55513	-0.2509995	14.19084	3.000069E-02	0	3	1	0.15	-2	0	-7.623425E-05	13.93125	0.9809873	160.0909	28.47607	0.1404361	1.836057	51.99127
10/24/2014 4:07:24 PM	16:07:24	0	B	2	0	0	0	0	0	0	804.6873	86.18894	80.20041	14.20125	54.72501	316.1787	-0.2749939	87.46699	-0.2670002	14.19099	2.000046E-02	0	3	1	0.15	-2	0.3999023	-1.522825E-04	13.92125	0.9802835	157.877	28.41534	0.1229035	1.606837	45.50047
10/24/2014 4:07:34 PM	16:07:34	0	B	2	0	0	0	0	0	0	799.3068	85.83637	80.20041	14.20087	54.64	312.9997	-0.2850037	87.51106	-0.2369995	14.19083	2.199936E-02	0	3	1	0.15	-2	0.2001953	-7.623425E-05	13.91088	0.9795792	156.1109	28.15981	0.114683	1.499362	42.45715
10/24/2014 4:07:44 PM	16:07:44	0	B	2	-1	0	0	0	0	0	792.9751	85.7923	80.20041	14.20087	54.64	310.0894	-0.2899933	87.55513	-0.3050003	14.1905	2.599907E-02	0	3	1	0.15	-2	0.2001953	-1.522825E-04	13.90087	0.9788743	154.4941	28.07463	0.1306736	1.708424	48.37709
10/24/2014 4:07:54 PM	16:07:54	0	B	2	0	0	0	0	0	0	787.3445	85.43974	80.21753	14.20087	54.59	306.3731	-0.2899933	87.5992	-0.2490005	14.19079	2.000046E-02	0	3	1	0.15	-2	0.2001953	-1.522825E-04	13.91088	0.9795792	152.4295	27.94069	0.117496	1.53614	43.49856
10/24/2014 4:08:04 PM	16:08:04	0	B	2	0	0	0	0	0	0	778.3867	85.39568	80.26025	14.20163	54.595	303.597	-0.2799988	87.51106	-0.2399998	14.19299	2.199936E-02	0	3	1	0.15	-2	0.3999023	-1.522825E-04	13.92163	0.980284	150.8873	27.97714	0.1202705	1.572413	44.5257
10/24/2014 4:08:14 PM	16:08:14	0	B	2	0	0	0	0	0	0	767.0402	85.7923	80.25168	14.20125	54.63	300.0151	-0.2700043	87.55513	-0.2770004	14.19131	0.0170002	0	3	1	0.15	-2	0.2001953	-7.623425E-05	13.93625	0.9813397	148.8973	28.2873	0.1057213	1.382198	39.13941
10/24/2014 4:08:24 PM	16:08:24	0	B	2	0	0	0	0	0	0	760.3432	85.96859	80.25168	14.20125	54.63	297.1048	-0.2649994	87.5992	-0.2390003	14.19189	0.0189991	0	3	1	0.15	-2	0.3999023	-1.522825E-04	13.93625	0.9813397	147.2804	28.38469	0.1116079	1.459159	41.31871
10/24/2014 4:08:34 PM	16:08:34	0	B	2	0	0	0	0	0	0	748.0156	86.05673	80.31155	14.20125	54.77	294.2392	-0.2599945	87.81956	-0.2490005	14.19218	2.199936E-02	0	3	1	0.15	-2	0.3999023	-1.522825E-04	13.94126	0.9816921	145.6884	28.4638	0.1202344	1.571942	44.51236
10/24/2014 4:08:44 PM	16:08:44	0	B	2	0	0	0	0	0	0	753.1769	85.3516	80.32007	14.20125	54.845	290.4781	-0.2550049	87.68735	-0.2700005	14.19164	2.300072E-02	0	3	1	0.15	-2	0.3999023	-1.522825E-04	13.94625	0.9820435	143.599	28.1043	0.1228825	1.606563	45.49271
10/24/2014 4:08:54 PM	16:08:54	0	B	2	0	0	0	0	0	0	749.5938	85.17532	80.32007	14.20125	54.845	287.7021	-0.2599945	87.73141	-0.2600002	14.19142	2.199936E-02	0	3	1	0.15	-2	0.6000977	-1.522825E-04	13.94126	0.9816921	142.0567	27.97663	0.1202405	1.572022	44.51462
10/24/2014 4:09:04 PM	16:09:04	0	B	2	0	0	0	0	0	0	745.5415	85.52789	80.32864	14.20125	54.82001	284.7918	-0.2649994	87.64327	-0.2759991	14.19146	2.199936E-02	0	3	1	0.15	-2	0.3999023	-1.522825E-04	13.93625	0.9813397	140.4399	28.14112	0.12025	1.572145	44.51813
10/24/2014 4:09:14 PM	16:09:14	0	B	2	0	0	0	0	0	0	741.7451	85.70416	80.36285	14.20163	54.765	281.3639	-0.2649994	87.68735	-0.2770004	14.19131	2.300072E-02	0	3	1	0.15	-2	0.3999023	-1.522825E-04	13.93125	0.9809873	138.5355	28.20816	0.1228811	1.606544	45.49219
10/24/2014 4:09:24 PM	16:09:24	0	B	2	0	0	0	0	0	0	735.6027	85.96859	80.36285	14.20163	54.765	278.5855	-0.2649994	87.68735	-0.2679996	14.1918	2.199936E-02	0	3	1	0.15	-2	0.3999023	-1.522825E-04	13.93663	0.9813402	136.992	28.38472	0.1202468	1.572103	44.51693
10/24/2014 4:09:34 PM	16:09:34	0	B	2	0	0	0	0	0	0	731.2517	85.61603	80.39703	14.20087	54.72501	275.4543	-0.2649994	87.5992	-0.2749996	14.19123	2.099991E-02	0	3	1	0.15	-2	0.3999023	-2.285168E-04	13.93587	0.9813392	135.2524	28.18982	0.1174978	1.536163	43.49923
10/24/2014 4:09:44 PM	16:09:44	0	B	2	-1	0	0	0	0	0	727.5406	85.70416	80.39703	14.20087	54.72501	272.9846	-0.2749939	87.77548	-0.2800007	14.19101	2.199936E-02	0	3	1	0.15	-2	0.3999023	-2.285168E-04	13.93087	0.9809868	133.8804	28.20813	0.1202342	1.571938	44.51226
10/24/2014 4:09:54 PM	16:09:54	0	B	2	0	0	0	0	0	0	721.8674	85.61603	80.39703	14.20163	54.69501	270.515	-0.2749939	87.68735	-0.2789993	14.19176	2.300072E-02	0	3	1	0.15	-2	0.2001953	-1.522825E-04	13.92663	0.9806365	132.5083	28.12926	0.122883	1.60657	45.49291
10/24/2014 4:10:04 PM	16:10:04	0	B	2	0	0	0	0	0	0	717.4312	85.88045	80.42273	14.20087	54.61	267.6483	-0.2749939	87.73141	-0.2730007	14.19119	2.000046E-02	0	3	1	0.15	-2	0.2001953	-7.623425E-05	13.92588	0.9806354	130.9158	28.27527	0.1146623	1.499092	42.44948
10/24/2014 4:10:14 PM	16:10:14	0	B	2	0	0	0	0	0	0	713.5068	85.70416	80.44836	14.20125	54.715	265.2668	-0.2700043	87.5992	-0.2730007	14.19146	2.099991E-02	0	3	1	0.15	-2	0.3999023	-1.522825E-04	13.93625	0.9813397	129.5927	28.23854	0.1174988	1.536176	43.49958
10/24/2014 4:10:24 PM	16:10:24	0	B	2	0	0	0	0	0	0	702.8	86.23302	80.44836	14.20125	54.715	263.1059	-0.2649994	87.68735	-0.2639999	14.19156	2.499962E-02	0	3	1	0.15	-2	0.3999023	-1.522825E-04	13.93625	0.9813397	128.3922	28.53083	0.128192	1.675979	47.45837
10/24/2014 4:10:34 PM	16:10:34	0	B	2	0	0	0	0	0	0	696.1746	86.36523	80.46545	14.20087	54.80499	260.2393	-0.2550049	87.73141	-0.2689991	14.19108	2.499962E-02	0	3	1	0.15	-2	0.3999023	-1.522825E-04	13.94587	0.982043	126.7996	28.66454	0.1202391	1.572003	44.51409
10/24/2014 4:10:44 PM	16:10:44	0	B	2	0	0	0	0	0	0	696.4325	86.71779	80.46545	14.20087	54.80499	257.9901	-0.25	87.73141	-0.2719994	14.19094	2.400017E-02	0	3	1	0.15	-2	0.6000977	-1.522825E-04	13.95087	0.9823955	125.5501	28.88982	0.1254506	1.640138	46.44345
10/24/2014 4:10:54 PM	16:10:54	0	B	2	0	0	0	0	0	0	682.374	86.62965	80.50821	14.20125	54.78	255.1235	-0.2449951	87.64327	-0.2639999	14.19149	2.199936E-02	0	3	1	0.15	-2	0.3999023	-1.522825E-04	13.95625	0.9827483	123.9575	28.87155	0.1202502	1.572147	44.51818
10/24/2014 4:11:04 PM	16:11:04	0	B	2	0	0	0	0	0	0	670.809	86.62965	80.52527	14.20125	54.74001	252.742	-0.2400055	87.77548	-0.2600002	14.19149	2.199936E-02	0	3	1	0.15	-2	0.3999023	-1.522825E-04	13.95625	0.9827483	122.6345	28.87155	0.1202362	1.571965	44.51302
10/24/2014 4:11:14 PM	16:11:14	0	B	2	0	0	0	0	0	0	661.7805	86.45337	80.52527	14.20125	54.74001	250.581	-0.2250061	87.73141	-0.2619991	14.19171	2.300072E-02	0	3	1	0.15	-2	0.2001953	-7.623425E-05	13.97624	0.9841559	121.4339	28.89535	0.1228781	1.606505	45.49107
10/24/2014 4:11:24 PM	16:11:24	0	B	2	0	0	0	0	0	0	655.1166	86.67372	80.54239	14.20087	54.675	247.538	-0.2149963	87.73141	-0.2579994	14.19137	2.000046E-02	0	3	1	0.15	-2	0.2001953	-7.623425E-05	13.98588	0.9848604	119.7434	29.07791	0.114663	1.499101	42.44975
10/24/2014 4:11:34 PM	16:11:34	0	B	2	0	0	0	0	0	0	657.3093	86.32115	80.5766	14.20125	54.64999	245.0684	-0.2250061	87.77548	-0.2779999	14.19142	2.300072E-02	0	3	1	0.15	-2	0.3999023	-1.522825E-04	13.98125	0.9845083	118.3713	28.85256	0.1202359	1.571961	44.51291
10/24/2014 4:11:44 PM	16:11:44	0	B	2	0	0	0	0	0	0	662.4684	86.5415	80.61935	14.20125	54.58	242.6869	-0.2350006	87.64327	-0.2730007	14.19153	2.599907E-02	0	3	1	0.15	-2	0.2001953	-7.623425E-05	13.97125	0.9838045	117.0483	28.91383	0.1254629	1.640298	46.448
10/24/2014 4:11:54 PM	16:11:54	0	B	2	0	0	0	0	0	0	661.8665	86.49744	80.61935	14.20125	54.58	239.5557	-0.2400055	87.68735	-0.2830009	14.19117	2.199936E-02	0	3	1	0.15	-2	0.3999023	-7.623425E-05	13.96124	0.9830997	115.3087	28.82875	0.1202441	1.572068	44.51595
10/24/2014 4:12:04 PM	16:12:04	0	B	2	0	0	0	0	0	0	660.5767	86.71779	80.61935	14.20087	54.59	237.3506	-0.2449951	87.73141	-0.2830009	14.1909	2.199936E-02	0	3	1	0.15	-2	0.3999023	-7.623425E-05	13.95588	0.9827479	114.0837	28.92024	0.1202383	1.571993	44.5138
10/24/2014 4:12:14 PM	16:12:14	0	B	2	-1	0	0	0	0	0	649.3986	86.93814	80.61935	14.20087	54.59	234.6403	-0.25	87.64327	-0.2740002	14.19112	2.199936E-02	0	3	1	0.15	-2	0.3999023	-1.522825E-04	13.95087	0.9823955	112.578	29.01162	0.1202486	1.572127	44.51759
10/24/2014 4:12:24 PM	16:12:24	0	B	2	0	0	0	0	0	0	649.3557	86.98222	80.64499	14.20087	54.60001	232.4232	-0.2550049	87.64327	-0.2740002	14.19072	2.300072E-02	0	3	1	0.15	-2	0.3999023	-1.522825E-04	13.94587	0.982043	111.3462	29.00559	0.1228833	1.606573	45.49299
10/24/2014 4:12:34 PM	16:12:34	0	B	2	0	0	0	0	0	0	650.5164	86.62965	80.6792	14.20163	54.56	230.3799	-0.2599945	87.81956	-0.2859993	14.19162	2.499962E-02	0	3	1	0.15	-2	0.3999023	-1.522825E-04	13.94163	0.9816926	110.2111	28.8292	0.1281774	1.675788	47.45294
10/24/2014 4:12:44 PM	16:12:44	0	B	2	0	0	0	0	0	0	648.0659	86.23302	80.72195	14.20125	54.505	227.7716	-0.2599945	87.68735	-0.2800007	14.19113	2.199936E-02	0	3	1	0.15	-2	0.3999023	-7.623425E-05	13.94126	0.9816921	108.762	28.56122	0.120244	1.572067	44.5159
10/24/2014 4:12:54 PM	16:12:54	0	B	2	0	0	0	0	0	0	644.8414	85.61603	80.72195	14.20125	54.505	225.9892	-0.2649994	87.73141	-0.2789993	14.19106	2.300072E-02	0	3	1	0.15	-2	0.3999023	-1.522825E-04	13.93625	0.9813397	107.7718	28.18985	0.1228752	1.606468	45.49002
10/24/2014 4:13:04 PM	16:13:04	0	B	2	0	0	0	0	0	0	637.6187	85.92452	80.74759	14.20087	54.47	224.0329	-0.2599945	87.5992	-0.2630005	14.1913	2.300072E-02	0	3	1	0.15	-2	0.3999023	-1.522825E-04	13.94088	0.9816917	106.6849	28.39069	0.1228905	1.606668	45.49568
10/24/2014 4:13:14 PM	16:13:14	0	B	2	0	0	0	0	0	0	628.3752	86.18894	80.74759	14.20087	54.47	221.7288	-0.2599945	87.64327	-0.257	14.19162	2.300072E-02	0	3	1	0.15	-2	0.6000977	-2.285168E-04	13.94088	0.9816917	105.4049	28.5368	0.1202507	1.572155	44.51838
10/24/2014 4:13:24 PM	16:13:24	0	B	2	0	0	0	0	0	0	617.7991	86.85	80.76471	14.20125	54.58	219.9029	-0.2449951	87.64327	-0.2730007	14.19142	2.599907E-02	0	3	1	0.15	-2	0.3999023	-1.522825E-04	13.95625	0.9827483	104.3905	28.99338	0.1306677	1.708347	48.37491
10/24/2014 4:13:34 PM	16:13:34	0	B	2	0	0	0	0	0	0	621.4105	86.67372	80.80743	14.20087	54.595	217.4684	-0.2400055	87.68735	-0.2759991	14.19112	2.499962E-02	0	3	1	0.15	-2	0.3999023	-1.522825E-04	13.96087	0.9830992	103.038	28.92617	0.12819	1.675953	47.45761
10/24/2014 4:13:44 PM	16:13:44	0	B	2	0	0	0	0	0	0	607.762	87.1585	80.80743	14.20087	54.595	215.7729	-0.2350006	87.68735	-0.257	14.19162	2.700043E-02	0	3	1	0.15	-2	0.3999023	-2.285168E-04	13.97088	0.9838041	102.0961	29.25498	0.1331515	1.740819	49.29443
10/24/2014 4:13:54 PM	16:13:54	0	B	2	0	0	0	0	0	0	598.9106	86.67372	80.84164	14.20087	54.59	213.7297	-0.2250061	87.73141	-0.2479992	14.19086	2.300072E-02	0	3	1	0.15	-2	0.3999023	-1.522825E-04	13.97587	0.9841555	100.961	29.01718	0.1202382	1.571991	44.51374
10/24/2014 4:14:04 PM	16:14:04	0	B	2	0	0	0	0	0	0	590.1894	86.71779	80.85876	14.20087	54.595	211.4256	-0.2149963	87.77548	-0.2759991	14.19119	2.199936E-02	0	3	1	0.15	-2	0.6000977	-2.285168E-04	13.99087	0.9852117	99.68091	29.13254	0.1202349	1.571948	44.51254
10/24/2014 4:14:14 PM	16:14:14	0	B	2	0	0	0	0	0	0	586.9786	86.76186	80.8844	14.2005	54.44501	209.4693	-0.2100067	87.77548	-0.2730007	14.19119	2.199936E-02	0	3	1	0.15	-2	0.6000977	-2.285168E-04	13.99587	0.9855641	98.59408	29.18723	0.1202349	1.571948	44.51254
10/24/2014 4:14:24 PM	16:14:24	0	B	2	0	0	0	0	0	0	590.2762	86.89407	80.8844	14.2005	54.44501	207.513	-0.2100067	87.64327	-0.2630005	14.19103	2.199936E-02	0	3	1	0.15	-2	0.3999023	-2.285168E-04	13.99049	0.9852113	97.50724	29.23003	0.1228846	1.60659	45.4935
10/24/2014 4:14:34 PM	16:14:34	0	B	2	0	0	0	0	0	0	588.1501	86.93814	80.91003	14.20087	54.425	204.9481	-0.2100067	87.68735	-0.2859993	14.19047	2.400017E-02	0	3	1	0.15	-2	0.3999023	-1.522825E-04	13.99587	0.9855641	96.08228	29.28475	0.1254533	1.640174	46.44447
10/24/2014 4:14:44 PM	16:14:44	0	B	2	0	0	0	0	0	0	583.6376	87.11443	80.91003	14.20087	54.425	202.9483	-0.2050018	87.64327	-0.2630005	14.1913	2.099991E-02	0	3	1	0.15	-2	0.6000977	-1.522825E-04	13.99587	0.9855641	94.9713	29.38231	0.1174936	1.536108	43.49766
10/24/2014 4:14:54 PM	16:14:54	0	B	2	0	0	0	0	0	0	575.6107	87.02628	80.93567	14.2005	54.34	200.5138	-0.1999969	87.68735	-0.2549992	14.19121	2.400017E-02	0	3	1	0.15	-2	0.6000977	-2.285168E-04	14.0005	0.9859162	93.6188	29.36386	0.1228807	1.606539	45.49203
